<?xml version="1.0" encoding="UTF-8" standalone="no" ?>
<gpx xmlns="http://www.topografix.com/GPX/1/1" xmlns:xsi="http://www.w3.org/2001/XMLSchema-instance" xsi:schemaLocation="http://www.topografix.com/GPX/1/1 http://www.topografix.com/GPX/1/1/gpx.xsd" version="1.1" creator="VisuGPX - https://www.visugpx.com">
  <metadata>
    <name>De Haute-Garonne à Petit port</name>
  </metadata>
  <trk>
    <name><![CDATA[De Haute-Garonne à Petit port]]></name>
    <trkseg>
      <trkpt lat="43.59179" lon="1.47416">
        <ele>187.426261</ele>
        <time>2021-10-30T21:36:36.753Z</time>
      </trkpt>
      <trkpt lat="43.59291" lon="1.47495">
        <ele>186.658682</ele>
        <time>2021-10-30T21:37:06.496Z</time>
      </trkpt>
      <trkpt lat="43.59297" lon="1.47484">
        <ele>186.456094</ele>
        <time>2021-10-30T21:37:08.200Z</time>
      </trkpt>
      <trkpt lat="43.59279" lon="1.47422">
        <ele>185.420128</ele>
        <time>2021-10-30T21:37:17.113Z</time>
      </trkpt>
      <trkpt lat="43.59236" lon="1.47281">
        <ele>182.553916</ele>
        <time>2021-10-30T21:37:34.719Z</time>
      </trkpt>
      <trkpt lat="43.59171" lon="1.47066">
        <ele>175.424447</ele>
        <time>2021-10-30T21:38:00.813Z</time>
      </trkpt>
      <trkpt lat="43.59169" lon="1.4706">
        <ele>175.247413</ele>
        <time>2021-10-30T21:38:01.465Z</time>
      </trkpt>
      <trkpt lat="43.59173" lon="1.47058">
        <ele>175.100878</ele>
        <time>2021-10-30T21:38:02.116Z</time>
      </trkpt>
      <trkpt lat="43.59176" lon="1.47054">
        <ele>174.929358</ele>
        <time>2021-10-30T21:38:02.866Z</time>
      </trkpt>
      <trkpt lat="43.59181" lon="1.47049">
        <ele>174.707957</ele>
        <time>2021-10-30T21:38:03.854Z</time>
      </trkpt>
      <trkpt lat="43.59172" lon="1.47034">
        <ele>174.18917</ele>
        <time>2021-10-30T21:38:05.921Z</time>
      </trkpt>
      <trkpt lat="43.59165" lon="1.47021">
        <ele>173.720397</ele>
        <time>2021-10-30T21:38:07.792Z</time>
      </trkpt>
      <trkpt lat="43.5915" lon="1.46989">
        <ele>172.668597</ele>
        <time>2021-10-30T21:38:12.152Z</time>
      </trkpt>
      <trkpt lat="43.59137" lon="1.46956">
        <ele>171.602986</ele>
        <time>2021-10-30T21:38:16.540Z</time>
      </trkpt>
      <trkpt lat="43.59133" lon="1.46943">
        <ele>171.22744</ele>
        <time>2021-10-30T21:38:18.033Z</time>
      </trkpt>
      <trkpt lat="43.59128" lon="1.46914">
        <ele>170.394698</ele>
        <time>2021-10-30T21:38:21.572Z</time>
      </trkpt>
      <trkpt lat="43.59128" lon="1.46913">
        <ele>170.361105</ele>
        <time>2021-10-30T21:38:21.697Z</time>
      </trkpt>
      <trkpt lat="43.59122" lon="1.46903">
        <ele>170.015874</ele>
        <time>2021-10-30T21:38:23.054Z</time>
      </trkpt>
      <trkpt lat="43.59018" lon="1.46754">
        <ele>165.624816</ele>
        <time>2021-10-30T21:38:47.881Z</time>
      </trkpt>
      <trkpt lat="43.59044" lon="1.46685">
        <ele>164.072456</ele>
        <time>2021-10-30T21:38:57.636Z</time>
      </trkpt>
      <trkpt lat="43.59051" lon="1.46661">
        <ele>163.59782</ele>
        <time>2021-10-30T21:39:00.854Z</time>
      </trkpt>
      <trkpt lat="43.59028" lon="1.46646">
        <ele>162.946953</ele>
        <time>2021-10-30T21:39:05.276Z</time>
      </trkpt>
      <trkpt lat="43.5899" lon="1.46625">
        <ele>161.91965</ele>
        <time>2021-10-30T21:39:12.121Z</time>
      </trkpt>
      <trkpt lat="43.58898" lon="1.46574">
        <ele>159.430209</ele>
        <time>2021-10-30T21:39:28.829Z</time>
      </trkpt>
      <trkpt lat="43.58881" lon="1.46562">
        <ele>159.022673</ele>
        <time>2021-10-30T21:39:31.969Z</time>
      </trkpt>
      <trkpt lat="43.58804" lon="1.465">
        <ele>157.130841</ele>
        <time>2021-10-30T21:39:47.349Z</time>
      </trkpt>
      <trkpt lat="43.58822" lon="1.46461">
        <ele>156.416675</ele>
        <time>2021-10-30T21:39:53.278Z</time>
      </trkpt>
      <trkpt lat="43.58825" lon="1.46455">
        <ele>156.302672</ele>
        <time>2021-10-30T21:39:54.209Z</time>
      </trkpt>
      <trkpt lat="43.5882" lon="1.4645">
        <ele>156.1728</ele>
        <time>2021-10-30T21:39:55.242Z</time>
      </trkpt>
      <trkpt lat="43.5875" lon="1.46391">
        <ele>155.101886</ele>
        <time>2021-10-30T21:40:10.454Z</time>
      </trkpt>
      <trkpt lat="43.58705" lon="1.46352">
        <ele>154.553621</ele>
        <time>2021-10-30T21:40:20.976Z</time>
      </trkpt>
      <trkpt lat="43.587" lon="1.46348">
        <ele>154.500482</ele>
        <time>2021-10-30T21:40:21.894Z</time>
      </trkpt>
      <trkpt lat="43.58691" lon="1.46337">
        <ele>154.377474</ele>
        <time>2021-10-30T21:40:24.380Z</time>
      </trkpt>
      <trkpt lat="43.58679" lon="1.46327">
        <ele>154.230747</ele>
        <time>2021-10-30T21:40:27.288Z</time>
      </trkpt>
      <trkpt lat="43.58677" lon="1.46324">
        <ele>154.202039</ele>
        <time>2021-10-30T21:40:27.853Z</time>
      </trkpt>
      <trkpt lat="43.58668" lon="1.46314">
        <ele>154.081393</ele>
        <time>2021-10-30T21:40:30.175Z</time>
      </trkpt>
      <trkpt lat="43.58681" lon="1.46286">
        <ele>153.844887</ele>
        <time>2021-10-30T21:40:35.086Z</time>
      </trkpt>
      <trkpt lat="43.58685" lon="1.46277">
        <ele>153.780131</ele>
        <time>2021-10-30T21:40:36.586Z</time>
      </trkpt>
      <trkpt lat="43.58686" lon="1.46273">
        <ele>153.756103</ele>
        <time>2021-10-30T21:40:37.222Z</time>
      </trkpt>
      <trkpt lat="43.58713" lon="1.46208">
        <ele>153.313961</ele>
        <time>2021-10-30T21:40:47.990Z</time>
      </trkpt>
      <trkpt lat="43.58722" lon="1.46185">
        <ele>153.159113</ele>
        <time>2021-10-30T21:40:51.747Z</time>
      </trkpt>
      <trkpt lat="43.58725" lon="1.46179">
        <ele>153.116271</ele>
        <time>2021-10-30T21:40:52.812Z</time>
      </trkpt>
      <trkpt lat="43.58729" lon="1.46173">
        <ele>153.064054</ele>
        <time>2021-10-30T21:40:54.110Z</time>
      </trkpt>
      <trkpt lat="43.58732" lon="1.46169">
        <ele>153.031843</ele>
        <time>2021-10-30T21:40:54.912Z</time>
      </trkpt>
      <trkpt lat="43.58732" lon="1.46169">
        <ele>153.029829</ele>
        <time>2021-10-30T21:40:54.964Z</time>
      </trkpt>
      <trkpt lat="43.58734" lon="1.46166">
        <ele>153.010178</ele>
        <time>2021-10-30T21:40:55.448Z</time>
      </trkpt>
      <trkpt lat="43.58747" lon="1.46137">
        <ele>152.806495</ele>
        <time>2021-10-30T21:41:00.443Z</time>
      </trkpt>
      <trkpt lat="43.58756" lon="1.46117">
        <ele>152.669437</ele>
        <time>2021-10-30T21:41:03.698Z</time>
      </trkpt>
      <trkpt lat="43.58758" lon="1.46114">
        <ele>152.648351</ele>
        <time>2021-10-30T21:41:04.185Z</time>
      </trkpt>
      <trkpt lat="43.58763" lon="1.46102">
        <ele>152.565308</ele>
        <time>2021-10-30T21:41:06.157Z</time>
      </trkpt>
      <trkpt lat="43.58768" lon="1.46091">
        <ele>152.490261</ele>
        <time>2021-10-30T21:41:07.965Z</time>
      </trkpt>
      <trkpt lat="43.58773" lon="1.46069">
        <ele>152.313067</ele>
        <time>2021-10-30T21:41:11.316Z</time>
      </trkpt>
      <trkpt lat="43.58772" lon="1.46051">
        <ele>152.149471</ele>
        <time>2021-10-30T21:41:13.728Z</time>
      </trkpt>
      <trkpt lat="43.5877" lon="1.4603">
        <ele>151.952147</ele>
        <time>2021-10-30T21:41:16.640Z</time>
      </trkpt>
      <trkpt lat="43.58768" lon="1.46018">
        <ele>151.835122</ele>
        <time>2021-10-30T21:41:18.345Z</time>
      </trkpt>
      <trkpt lat="43.58764" lon="1.46007">
        <ele>151.715496</ele>
        <time>2021-10-30T21:41:20.080Z</time>
      </trkpt>
      <trkpt lat="43.58759" lon="1.46003">
        <ele>151.647141</ele>
        <time>2021-10-30T21:41:21.060Z</time>
      </trkpt>
      <trkpt lat="43.58744" lon="1.45985">
        <ele>151.391745</ele>
        <time>2021-10-30T21:41:24.717Z</time>
      </trkpt>
      <trkpt lat="43.58737" lon="1.45973">
        <ele>151.247039</ele>
        <time>2021-10-30T21:41:26.745Z</time>
      </trkpt>
      <trkpt lat="43.58726" lon="1.45948">
        <ele>150.979818</ele>
        <time>2021-10-30T21:41:30.517Z</time>
      </trkpt>
      <trkpt lat="43.58721" lon="1.45936">
        <ele>150.842494</ele>
        <time>2021-10-30T21:41:32.444Z</time>
      </trkpt>
      <trkpt lat="43.5866" lon="1.45792">
        <ele>149.546221</ele>
        <time>2021-10-30T21:41:55.085Z</time>
      </trkpt>
      <trkpt lat="43.58636" lon="1.45731">
        <ele>149.10198</ele>
        <time>2021-10-30T21:42:04.902Z</time>
      </trkpt>
      <trkpt lat="43.58632" lon="1.45722">
        <ele>149.037498</ele>
        <time>2021-10-30T21:42:06.368Z</time>
      </trkpt>
      <trkpt lat="43.58631" lon="1.45718">
        <ele>149.008403</ele>
        <time>2021-10-30T21:42:07.026Z</time>
      </trkpt>
      <trkpt lat="43.58623" lon="1.45698">
        <ele>148.865451</ele>
        <time>2021-10-30T21:42:10.237Z</time>
      </trkpt>
      <trkpt lat="43.58603" lon="1.45648">
        <ele>148.509679</ele>
        <time>2021-10-30T21:42:19.028Z</time>
      </trkpt>
      <trkpt lat="43.58577" lon="1.45585">
        <ele>148.378254</ele>
        <time>2021-10-30T21:42:30.494Z</time>
      </trkpt>
      <trkpt lat="43.5857" lon="1.45568">
        <ele>148.344072</ele>
        <time>2021-10-30T21:42:33.320Z</time>
      </trkpt>
      <trkpt lat="43.58528" lon="1.45465">
        <ele>148.130711</ele>
        <time>2021-10-30T21:42:51.805Z</time>
      </trkpt>
      <trkpt lat="43.58527" lon="1.45462">
        <ele>148.123807</ele>
        <time>2021-10-30T21:42:52.463Z</time>
      </trkpt>
      <trkpt lat="43.58522" lon="1.45449">
        <ele>148.097503</ele>
        <time>2021-10-30T21:42:54.576Z</time>
      </trkpt>
      <trkpt lat="43.58517" lon="1.45438">
        <ele>148.07473</ele>
        <time>2021-10-30T21:42:56.407Z</time>
      </trkpt>
      <trkpt lat="43.58516" lon="1.45436">
        <ele>148.069449</ele>
        <time>2021-10-30T21:42:56.853Z</time>
      </trkpt>
      <trkpt lat="43.58513" lon="1.45428">
        <ele>148.059366</ele>
        <time>2021-10-30T21:42:58.208Z</time>
      </trkpt>
      <trkpt lat="43.58486" lon="1.45365">
        <ele>147.988305</ele>
        <time>2021-10-30T21:43:09.592Z</time>
      </trkpt>
      <trkpt lat="43.58474" lon="1.45335">
        <ele>147.955038</ele>
        <time>2021-10-30T21:43:14.876Z</time>
      </trkpt>
      <trkpt lat="43.58417" lon="1.45194">
        <ele>147.909561</ele>
        <time>2021-10-30T21:43:40.177Z</time>
      </trkpt>
      <trkpt lat="43.58415" lon="1.45189">
        <ele>147.925346</ele>
        <time>2021-10-30T21:43:41.002Z</time>
      </trkpt>
      <trkpt lat="43.58378" lon="1.45102">
        <ele>148.241793</ele>
        <time>2021-10-30T21:43:58.921Z</time>
      </trkpt>
      <trkpt lat="43.58374" lon="1.45092">
        <ele>148.276389</ele>
        <time>2021-10-30T21:44:00.934Z</time>
      </trkpt>
      <trkpt lat="43.5837" lon="1.45079">
        <ele>148.320798</ele>
        <time>2021-10-30T21:44:03.489Z</time>
      </trkpt>
      <trkpt lat="43.58368" lon="1.45072">
        <ele>148.346208</ele>
        <time>2021-10-30T21:44:04.959Z</time>
      </trkpt>
      <trkpt lat="43.58366" lon="1.45055">
        <ele>148.398521</ele>
        <time>2021-10-30T21:44:07.797Z</time>
      </trkpt>
      <trkpt lat="43.58368" lon="1.4505">
        <ele>148.414107</ele>
        <time>2021-10-30T21:44:08.743Z</time>
      </trkpt>
      <trkpt lat="43.58387" lon="1.44983">
        <ele>148.646648</ele>
        <time>2021-10-30T21:44:21.855Z</time>
      </trkpt>
      <trkpt lat="43.58409" lon="1.44906">
        <ele>148.947359</ele>
        <time>2021-10-30T21:44:36.780Z</time>
      </trkpt>
      <trkpt lat="43.58412" lon="1.44893">
        <ele>148.99665</ele>
        <time>2021-10-30T21:44:39.372Z</time>
      </trkpt>
      <trkpt lat="43.58419" lon="1.44872">
        <ele>149.078242</ele>
        <time>2021-10-30T21:44:43.395Z</time>
      </trkpt>
      <trkpt lat="43.58424" lon="1.44861">
        <ele>149.125706</ele>
        <time>2021-10-30T21:44:45.806Z</time>
      </trkpt>
      <trkpt lat="43.58437" lon="1.44811">
        <ele>149.31877</ele>
        <time>2021-10-30T21:44:55.073Z</time>
      </trkpt>
      <trkpt lat="43.58439" lon="1.44805">
        <ele>149.343839</ele>
        <time>2021-10-30T21:44:56.307Z</time>
      </trkpt>
      <trkpt lat="43.58441" lon="1.44794">
        <ele>149.386274</ele>
        <time>2021-10-30T21:44:58.240Z</time>
      </trkpt>
      <trkpt lat="43.58442" lon="1.44781">
        <ele>149.433697</ele>
        <time>2021-10-30T21:45:00.297Z</time>
      </trkpt>
      <trkpt lat="43.5844" lon="1.4477">
        <ele>149.473661</ele>
        <time>2021-10-30T21:45:02.121Z</time>
      </trkpt>
      <trkpt lat="43.58434" lon="1.44731">
        <ele>149.458935</ele>
        <time>2021-10-30T21:45:08.673Z</time>
      </trkpt>
      <trkpt lat="43.58411" lon="1.44567">
        <ele>149.246781</ele>
        <time>2021-10-30T21:45:35.598Z</time>
      </trkpt>
      <trkpt lat="43.58401" lon="1.44494">
        <ele>149.114748</ele>
        <time>2021-10-30T21:45:46.026Z</time>
      </trkpt>
      <trkpt lat="43.58394" lon="1.4444">
        <ele>148.966587</ele>
        <time>2021-10-30T21:45:53.846Z</time>
      </trkpt>
      <trkpt lat="43.58393" lon="1.44438">
        <ele>148.958792</ele>
        <time>2021-10-30T21:45:54.258Z</time>
      </trkpt>
      <trkpt lat="43.5839" lon="1.44417">
        <ele>148.902545</ele>
        <time>2021-10-30T21:45:57.179Z</time>
      </trkpt>
      <trkpt lat="43.58389" lon="1.44404">
        <ele>148.866604</ele>
        <time>2021-10-30T21:45:59.198Z</time>
      </trkpt>
      <trkpt lat="43.58389" lon="1.44395">
        <ele>148.841373</ele>
        <time>2021-10-30T21:46:00.688Z</time>
      </trkpt>
      <trkpt lat="43.58389" lon="1.44392">
        <ele>148.833716</ele>
        <time>2021-10-30T21:46:01.216Z</time>
      </trkpt>
      <trkpt lat="43.58389" lon="1.44388">
        <ele>148.821965</ele>
        <time>2021-10-30T21:46:01.889Z</time>
      </trkpt>
      <trkpt lat="43.58389" lon="1.44384">
        <ele>148.81104</ele>
        <time>2021-10-30T21:46:02.541Z</time>
      </trkpt>
      <trkpt lat="43.5839" lon="1.44352">
        <ele>148.722751</ele>
        <time>2021-10-30T21:46:07.679Z</time>
      </trkpt>
      <trkpt lat="43.5839" lon="1.44349">
        <ele>148.716153</ele>
        <time>2021-10-30T21:46:08.020Z</time>
      </trkpt>
      <trkpt lat="43.58391" lon="1.44333">
        <ele>148.672644</ele>
        <time>2021-10-30T21:46:10.934Z</time>
      </trkpt>
      <trkpt lat="43.58391" lon="1.4433">
        <ele>148.663895</ele>
        <time>2021-10-30T21:46:11.363Z</time>
      </trkpt>
      <trkpt lat="43.58391" lon="1.44312">
        <ele>148.61273</ele>
        <time>2021-10-30T21:46:14.377Z</time>
      </trkpt>
      <trkpt lat="43.58392" lon="1.44308">
        <ele>148.603708</ele>
        <time>2021-10-30T21:46:14.873Z</time>
      </trkpt>
      <trkpt lat="43.58393" lon="1.44278">
        <ele>148.521076</ele>
        <time>2021-10-30T21:46:19.687Z</time>
      </trkpt>
      <trkpt lat="43.58393" lon="1.44275">
        <ele>148.513934</ele>
        <time>2021-10-30T21:46:20.035Z</time>
      </trkpt>
      <trkpt lat="43.58393" lon="1.44269">
        <ele>148.505082</ele>
        <time>2021-10-30T21:46:21.085Z</time>
      </trkpt>
      <trkpt lat="43.58394" lon="1.44264">
        <ele>148.503111</ele>
        <time>2021-10-30T21:46:21.902Z</time>
      </trkpt>
      <trkpt lat="43.58394" lon="1.44246">
        <ele>148.496567</ele>
        <time>2021-10-30T21:46:24.537Z</time>
      </trkpt>
      <trkpt lat="43.58395" lon="1.44241">
        <ele>148.494597</ele>
        <time>2021-10-30T21:46:25.450Z</time>
      </trkpt>
      <trkpt lat="43.58396" lon="1.44221">
        <ele>148.487131</ele>
        <time>2021-10-30T21:46:28.289Z</time>
      </trkpt>
      <trkpt lat="43.58403" lon="1.44214">
        <ele>148.482666</ele>
        <time>2021-10-30T21:46:30.136Z</time>
      </trkpt>
      <trkpt lat="43.58405" lon="1.44181">
        <ele>148.470051</ele>
        <time>2021-10-30T21:46:35.213Z</time>
      </trkpt>
      <trkpt lat="43.58407" lon="1.44138">
        <ele>148.453725</ele>
        <time>2021-10-30T21:46:41.728Z</time>
      </trkpt>
      <trkpt lat="43.58408" lon="1.44114">
        <ele>148.444706</ele>
        <time>2021-10-30T21:46:45.750Z</time>
      </trkpt>
      <trkpt lat="43.58408" lon="1.4411">
        <ele>148.443082</ele>
        <time>2021-10-30T21:46:46.440Z</time>
      </trkpt>
      <trkpt lat="43.58409" lon="1.44103">
        <ele>148.440624</ele>
        <time>2021-10-30T21:46:47.487Z</time>
      </trkpt>
      <trkpt lat="43.58409" lon="1.44093">
        <ele>148.436807</ele>
        <time>2021-10-30T21:46:49.252Z</time>
      </trkpt>
      <trkpt lat="43.58409" lon="1.44084">
        <ele>148.433172</ele>
        <time>2021-10-30T21:46:51.015Z</time>
      </trkpt>
      <trkpt lat="43.58412" lon="1.44042">
        <ele>148.417528</ele>
        <time>2021-10-30T21:46:58.366Z</time>
      </trkpt>
      <trkpt lat="43.58415" lon="1.43988">
        <ele>148.29477</ele>
        <time>2021-10-30T21:47:07.623Z</time>
      </trkpt>
      <trkpt lat="43.58415" lon="1.4397">
        <ele>148.243816</ele>
        <time>2021-10-30T21:47:10.971Z</time>
      </trkpt>
      <trkpt lat="43.58416" lon="1.43946">
        <ele>148.175978</ele>
        <time>2021-10-30T21:47:14.463Z</time>
      </trkpt>
      <trkpt lat="43.58417" lon="1.43938">
        <ele>148.152875</ele>
        <time>2021-10-30T21:47:15.796Z</time>
      </trkpt>
      <trkpt lat="43.58416" lon="1.43937">
        <ele>148.149041</ele>
        <time>2021-10-30T21:47:16.019Z</time>
      </trkpt>
      <trkpt lat="43.5841" lon="1.43931">
        <ele>148.120705</ele>
        <time>2021-10-30T21:47:17.692Z</time>
      </trkpt>
      <trkpt lat="43.58403" lon="1.43934">
        <ele>148.09263</ele>
        <time>2021-10-30T21:47:19.248Z</time>
      </trkpt>
      <trkpt lat="43.58402" lon="1.43934">
        <ele>148.086486</ele>
        <time>2021-10-30T21:47:19.557Z</time>
      </trkpt>
      <trkpt lat="43.58393" lon="1.43938">
        <ele>148.051073</ele>
        <time>2021-10-30T21:47:21.255Z</time>
      </trkpt>
      <trkpt lat="43.58324" lon="1.43923">
        <ele>147.781234</ele>
        <time>2021-10-30T21:47:35.185Z</time>
      </trkpt>
      <trkpt lat="43.58288" lon="1.43912">
        <ele>147.425792</ele>
        <time>2021-10-30T21:47:42.522Z</time>
      </trkpt>
      <trkpt lat="43.58232" lon="1.43897">
        <ele>146.621442</ele>
        <time>2021-10-30T21:47:53.361Z</time>
      </trkpt>
      <trkpt lat="43.58213" lon="1.43889">
        <ele>146.338884</ele>
        <time>2021-10-30T21:47:57.145Z</time>
      </trkpt>
      <trkpt lat="43.58193" lon="1.43878">
        <ele>146.027806</ele>
        <time>2021-10-30T21:48:01.058Z</time>
      </trkpt>
      <trkpt lat="43.58171" lon="1.43865">
        <ele>145.690001</ele>
        <time>2021-10-30T21:48:05.372Z</time>
      </trkpt>
      <trkpt lat="43.58138" lon="1.43844">
        <ele>145.177791</ele>
        <time>2021-10-30T21:48:11.769Z</time>
      </trkpt>
      <trkpt lat="43.58135" lon="1.43842">
        <ele>145.134322</ele>
        <time>2021-10-30T21:48:12.297Z</time>
      </trkpt>
      <trkpt lat="43.58129" lon="1.43838">
        <ele>145.031221</ele>
        <time>2021-10-30T21:48:13.478Z</time>
      </trkpt>
      <trkpt lat="43.58121" lon="1.43832">
        <ele>144.900469</ele>
        <time>2021-10-30T21:48:15.112Z</time>
      </trkpt>
      <trkpt lat="43.58112" lon="1.43825">
        <ele>144.748755</ele>
        <time>2021-10-30T21:48:16.963Z</time>
      </trkpt>
      <trkpt lat="43.58094" lon="1.43813">
        <ele>144.460644</ele>
        <time>2021-10-30T21:48:20.381Z</time>
      </trkpt>
      <trkpt lat="43.58091" lon="1.4381">
        <ele>144.406139</ele>
        <time>2021-10-30T21:48:21.089Z</time>
      </trkpt>
      <trkpt lat="43.58069" lon="1.43792">
        <ele>144.029008</ele>
        <time>2021-10-30T21:48:25.655Z</time>
      </trkpt>
      <trkpt lat="43.58046" lon="1.43773">
        <ele>143.640023</ele>
        <time>2021-10-30T21:48:30.400Z</time>
      </trkpt>
      <trkpt lat="43.58037" lon="1.43766">
        <ele>143.483165</ele>
        <time>2021-10-30T21:48:32.306Z</time>
      </trkpt>
      <trkpt lat="43.58023" lon="1.43755">
        <ele>143.2521</ele>
        <time>2021-10-30T21:48:35.269Z</time>
      </trkpt>
      <trkpt lat="43.57984" lon="1.43727">
        <ele>142.611145</ele>
        <time>2021-10-30T21:48:43.583Z</time>
      </trkpt>
      <trkpt lat="43.57944" lon="1.43703">
        <ele>142.743727</ele>
        <time>2021-10-30T21:48:53.044Z</time>
      </trkpt>
      <trkpt lat="43.57903" lon="1.43681">
        <ele>142.973353</ele>
        <time>2021-10-30T21:49:03.579Z</time>
      </trkpt>
      <trkpt lat="43.57872" lon="1.43668">
        <ele>143.141979</ele>
        <time>2021-10-30T21:49:12.516Z</time>
      </trkpt>
      <trkpt lat="43.57867" lon="1.43666">
        <ele>143.170746</ele>
        <time>2021-10-30T21:49:13.701Z</time>
      </trkpt>
      <trkpt lat="43.5784" lon="1.43656">
        <ele>143.312561</ele>
        <time>2021-10-30T21:49:21.380Z</time>
      </trkpt>
      <trkpt lat="43.57831" lon="1.43654">
        <ele>143.365254</ele>
        <time>2021-10-30T21:49:23.488Z</time>
      </trkpt>
      <trkpt lat="43.57814" lon="1.43649">
        <ele>143.455296</ele>
        <time>2021-10-30T21:49:28.835Z</time>
      </trkpt>
      <trkpt lat="43.57755" lon="1.43634">
        <ele>143.798213</ele>
        <time>2021-10-30T21:49:43.390Z</time>
      </trkpt>
      <trkpt lat="43.57749" lon="1.43633">
        <ele>143.8373</ele>
        <time>2021-10-30T21:49:45.891Z</time>
      </trkpt>
      <trkpt lat="43.57738" lon="1.4363">
        <ele>143.902834</ele>
        <time>2021-10-30T21:49:48.928Z</time>
      </trkpt>
      <trkpt lat="43.57738" lon="1.43622">
        <ele>143.936221</ele>
        <time>2021-10-30T21:49:50.219Z</time>
      </trkpt>
      <trkpt lat="43.57738" lon="1.43608">
        <ele>143.996228</ele>
        <time>2021-10-30T21:49:52.303Z</time>
      </trkpt>
      <trkpt lat="43.57724" lon="1.43606">
        <ele>144.075735</ele>
        <time>2021-10-30T21:49:58.731Z</time>
      </trkpt>
      <trkpt lat="43.57717" lon="1.43604">
        <ele>144.118573</ele>
        <time>2021-10-30T21:50:01.504Z</time>
      </trkpt>
      <trkpt lat="43.57712" lon="1.436">
        <ele>144.149842</ele>
        <time>2021-10-30T21:50:03.498Z</time>
      </trkpt>
      <trkpt lat="43.57711" lon="1.43593">
        <ele>144.181344</ele>
        <time>2021-10-30T21:50:05.329Z</time>
      </trkpt>
      <trkpt lat="43.57703" lon="1.43592">
        <ele>144.225917</ele>
        <time>2021-10-30T21:50:07.198Z</time>
      </trkpt>
      <trkpt lat="43.57674" lon="1.43596">
        <ele>144.395556</ele>
        <time>2021-10-30T21:50:14.271Z</time>
      </trkpt>
      <trkpt lat="43.57562" lon="1.43595">
        <ele>144.125206</ele>
        <time>2021-10-30T21:50:37.768Z</time>
      </trkpt>
      <trkpt lat="43.57422" lon="1.43628">
        <ele>143.529718</ele>
        <time>2021-10-30T21:51:06.255Z</time>
      </trkpt>
      <trkpt lat="43.57406" lon="1.43645">
        <ele>143.455046</ele>
        <time>2021-10-30T21:51:10.332Z</time>
      </trkpt>
      <trkpt lat="43.57314" lon="1.43713">
        <ele>143.070164</ele>
        <time>2021-10-30T21:51:32.551Z</time>
      </trkpt>
      <trkpt lat="43.57277" lon="1.4376">
        <ele>143.465437</ele>
        <time>2021-10-30T21:51:44.020Z</time>
      </trkpt>
      <trkpt lat="43.57199" lon="1.43839">
        <ele>144.313128</ele>
        <time>2021-10-30T21:52:09.680Z</time>
      </trkpt>
      <trkpt lat="43.57148" lon="1.43877">
        <ele>145.143913</ele>
        <time>2021-10-30T21:52:25.478Z</time>
      </trkpt>
      <trkpt lat="43.57131" lon="1.43886">
        <ele>145.588073</ele>
        <time>2021-10-30T21:52:31.110Z</time>
      </trkpt>
      <trkpt lat="43.57129" lon="1.43887">
        <ele>145.631816</ele>
        <time>2021-10-30T21:52:31.503Z</time>
      </trkpt>
      <trkpt lat="43.57103" lon="1.43897">
        <ele>146.276088</ele>
        <time>2021-10-30T21:52:39.075Z</time>
      </trkpt>
      <trkpt lat="43.57097" lon="1.43899">
        <ele>146.428473</ele>
        <time>2021-10-30T21:52:41.317Z</time>
      </trkpt>
      <trkpt lat="43.5707" lon="1.43909">
        <ele>147.101266</ele>
        <time>2021-10-30T21:52:50.218Z</time>
      </trkpt>
      <trkpt lat="43.5696" lon="1.43932">
        <ele>150.090553</ele>
        <time>2021-10-30T21:53:29.055Z</time>
      </trkpt>
      <trkpt lat="43.56955" lon="1.4394">
        <ele>150.334098</ele>
        <time>2021-10-30T21:53:31.906Z</time>
      </trkpt>
      <trkpt lat="43.56915" lon="1.43946">
        <ele>151.712461</ele>
        <time>2021-10-30T21:53:46.965Z</time>
      </trkpt>
      <trkpt lat="43.56709" lon="1.43986">
        <ele>157.551638</ele>
        <time>2021-10-30T21:55:00.436Z</time>
      </trkpt>
      <trkpt lat="43.56664" lon="1.43987">
        <ele>158.597407</ele>
        <time>2021-10-30T21:55:13.121Z</time>
      </trkpt>
      <trkpt lat="43.566" lon="1.43985">
        <ele>158.853676</ele>
        <time>2021-10-30T21:55:28.673Z</time>
      </trkpt>
      <trkpt lat="43.56591" lon="1.43984">
        <ele>158.781986</ele>
        <time>2021-10-30T21:55:30.822Z</time>
      </trkpt>
      <trkpt lat="43.5648" lon="1.43979">
        <ele>157.86198</ele>
        <time>2021-10-30T21:55:51.655Z</time>
      </trkpt>
      <trkpt lat="43.56431" lon="1.43966">
        <ele>157.2336</ele>
        <time>2021-10-30T21:56:00.531Z</time>
      </trkpt>
      <trkpt lat="43.56391" lon="1.43949">
        <ele>156.587788</ele>
        <time>2021-10-30T21:56:07.755Z</time>
      </trkpt>
      <trkpt lat="43.56373" lon="1.4394">
        <ele>156.289734</ele>
        <time>2021-10-30T21:56:11.116Z</time>
      </trkpt>
      <trkpt lat="43.56346" lon="1.43935">
        <ele>155.852889</ele>
        <time>2021-10-30T21:56:16.147Z</time>
      </trkpt>
      <trkpt lat="43.5626" lon="1.43944">
        <ele>154.919963</ele>
        <time>2021-10-30T21:56:31.982Z</time>
      </trkpt>
      <trkpt lat="43.56034" lon="1.44001">
        <ele>156.21921</ele>
        <time>2021-10-30T21:57:28.352Z</time>
      </trkpt>
      <trkpt lat="43.5593" lon="1.43997">
        <ele>157.676322</ele>
        <time>2021-10-30T21:57:59.291Z</time>
      </trkpt>
      <trkpt lat="43.55857" lon="1.44034">
        <ele>159.050848</ele>
        <time>2021-10-30T21:58:23.439Z</time>
      </trkpt>
      <trkpt lat="43.55836" lon="1.44053">
        <ele>159.50768</ele>
        <time>2021-10-30T21:58:31.020Z</time>
      </trkpt>
      <trkpt lat="43.55814" lon="1.44075">
        <ele>159.99599</ele>
        <time>2021-10-30T21:58:38.979Z</time>
      </trkpt>
      <trkpt lat="43.55796" lon="1.44094">
        <ele>160.399239</ele>
        <time>2021-10-30T21:58:45.573Z</time>
      </trkpt>
      <trkpt lat="43.55769" lon="1.44114">
        <ele>160.929403</ele>
        <time>2021-10-30T21:58:53.857Z</time>
      </trkpt>
      <trkpt lat="43.55734" lon="1.44124">
        <ele>161.26978</ele>
        <time>2021-10-30T21:59:03.481Z</time>
      </trkpt>
      <trkpt lat="43.55531" lon="1.44098">
        <ele>163.366446</ele>
        <time>2021-10-30T21:59:55.262Z</time>
      </trkpt>
      <trkpt lat="43.55406" lon="1.44102">
        <ele>164.872058</ele>
        <time>2021-10-30T22:00:29.939Z</time>
      </trkpt>
      <trkpt lat="43.55346" lon="1.44098">
        <ele>165.646765</ele>
        <time>2021-10-30T22:00:47.907Z</time>
      </trkpt>
      <trkpt lat="43.55148" lon="1.44056">
        <ele>166.704174</ele>
        <time>2021-10-30T22:01:40.708Z</time>
      </trkpt>
      <trkpt lat="43.55005" lon="1.43983">
        <ele>165.246425</ele>
        <time>2021-10-30T22:02:08.031Z</time>
      </trkpt>
      <trkpt lat="43.5496" lon="1.4397">
        <ele>164.447692</ele>
        <time>2021-10-30T22:02:16.104Z</time>
      </trkpt>
      <trkpt lat="43.54947" lon="1.43966">
        <ele>164.216446</ele>
        <time>2021-10-30T22:02:18.178Z</time>
      </trkpt>
      <trkpt lat="43.54921" lon="1.4395">
        <ele>163.720363</ele>
        <time>2021-10-30T22:02:23.607Z</time>
      </trkpt>
      <trkpt lat="43.54893" lon="1.43935">
        <ele>163.203632</ele>
        <time>2021-10-30T22:02:29.164Z</time>
      </trkpt>
      <trkpt lat="43.54828" lon="1.43926">
        <ele>163.037028</ele>
        <time>2021-10-30T22:02:41.556Z</time>
      </trkpt>
      <trkpt lat="43.54673" lon="1.4393">
        <ele>162.963245</ele>
        <time>2021-10-30T22:03:18.827Z</time>
      </trkpt>
      <trkpt lat="43.54568" lon="1.4391">
        <ele>163.33332</ele>
        <time>2021-10-30T22:03:44.386Z</time>
      </trkpt>
      <trkpt lat="43.54492" lon="1.43916">
        <ele>163.047932</ele>
        <time>2021-10-30T22:04:02.067Z</time>
      </trkpt>
      <trkpt lat="43.54358" lon="1.43837">
        <ele>161.551841</ele>
        <time>2021-10-30T22:04:29.088Z</time>
      </trkpt>
      <trkpt lat="43.54352" lon="1.43828">
        <ele>161.476153</ele>
        <time>2021-10-30T22:04:30.407Z</time>
      </trkpt>
      <trkpt lat="43.54348" lon="1.43831">
        <ele>161.437404</ele>
        <time>2021-10-30T22:04:31.565Z</time>
      </trkpt>
      <trkpt lat="43.54311" lon="1.43853">
        <ele>161.093731</ele>
        <time>2021-10-30T22:04:38.838Z</time>
      </trkpt>
      <trkpt lat="43.54297" lon="1.43872">
        <ele>160.919862</ele>
        <time>2021-10-30T22:04:42.777Z</time>
      </trkpt>
      <trkpt lat="43.54281" lon="1.43914">
        <ele>160.623507</ele>
        <time>2021-10-30T22:04:49.094Z</time>
      </trkpt>
      <trkpt lat="43.54248" lon="1.44034">
        <ele>160.748059</ele>
        <time>2021-10-30T22:05:08.569Z</time>
      </trkpt>
      <trkpt lat="43.54233" lon="1.44064">
        <ele>161.454554</ele>
        <time>2021-10-30T22:05:17.180Z</time>
      </trkpt>
      <trkpt lat="43.54219" lon="1.44077">
        <ele>161.928656</ele>
        <time>2021-10-30T22:05:21.589Z</time>
      </trkpt>
      <trkpt lat="43.54191" lon="1.44084">
        <ele>162.684437</ele>
        <time>2021-10-30T22:05:31.571Z</time>
      </trkpt>
      <trkpt lat="43.5415" lon="1.44064">
        <ele>163.878178</ele>
        <time>2021-10-30T22:05:47.072Z</time>
      </trkpt>
      <trkpt lat="43.54145" lon="1.44062">
        <ele>164.018774</ele>
        <time>2021-10-30T22:05:49.232Z</time>
      </trkpt>
      <trkpt lat="43.54136" lon="1.44058">
        <ele>164.270558</ele>
        <time>2021-10-30T22:05:54.146Z</time>
      </trkpt>
      <trkpt lat="43.5411" lon="1.44055">
        <ele>165.084899</ele>
        <time>2021-10-30T22:06:03.540Z</time>
      </trkpt>
      <trkpt lat="43.54088" lon="1.44059">
        <ele>166.411805</ele>
        <time>2021-10-30T22:06:13.193Z</time>
      </trkpt>
      <trkpt lat="43.5407" lon="1.4407">
        <ele>167.639052</ele>
        <time>2021-10-30T22:06:22.181Z</time>
      </trkpt>
      <trkpt lat="43.54048" lon="1.44093">
        <ele>169.339041</ele>
        <time>2021-10-30T22:06:34.155Z</time>
      </trkpt>
      <trkpt lat="43.53605" lon="1.44672">
        <ele>206.843358</ele>
        <time>2021-10-30T22:11:25.362Z</time>
      </trkpt>
      <trkpt lat="43.53505" lon="1.44773">
        <ele>213.38291</ele>
        <time>2021-10-30T22:12:18.175Z</time>
      </trkpt>
      <trkpt lat="43.53416" lon="1.44913">
        <ele>219.89735</ele>
        <time>2021-10-30T22:13:13.476Z</time>
      </trkpt>
      <trkpt lat="43.53397" lon="1.44936">
        <ele>221.066835</ele>
        <time>2021-10-30T22:13:24.114Z</time>
      </trkpt>
      <trkpt lat="43.53347" lon="1.44998">
        <ele>224.176684</ele>
        <time>2021-10-30T22:13:51.736Z</time>
      </trkpt>
      <trkpt lat="43.53316" lon="1.45035">
        <ele>226.08602</ele>
        <time>2021-10-30T22:14:08.499Z</time>
      </trkpt>
      <trkpt lat="43.53287" lon="1.45073">
        <ele>227.577937</ele>
        <time>2021-10-30T22:14:24.037Z</time>
      </trkpt>
      <trkpt lat="43.53259" lon="1.45111">
        <ele>229.035566</ele>
        <time>2021-10-30T22:14:38.562Z</time>
      </trkpt>
      <trkpt lat="43.53198" lon="1.45202">
        <ele>232.377962</ele>
        <time>2021-10-30T22:15:10.808Z</time>
      </trkpt>
      <trkpt lat="43.53066" lon="1.45421">
        <ele>239.760622</ele>
        <time>2021-10-30T22:16:24.914Z</time>
      </trkpt>
      <trkpt lat="43.53054" lon="1.45442">
        <ele>240.621482</ele>
        <time>2021-10-30T22:16:32.482Z</time>
      </trkpt>
      <trkpt lat="43.53026" lon="1.45498">
        <ele>242.831085</ele>
        <time>2021-10-30T22:16:52.340Z</time>
      </trkpt>
      <trkpt lat="43.52955" lon="1.45623">
        <ele>247.901312</ele>
        <time>2021-10-30T22:17:39.872Z</time>
      </trkpt>
      <trkpt lat="43.52955" lon="1.45628">
        <ele>248.044701</ele>
        <time>2021-10-30T22:17:42.655Z</time>
      </trkpt>
      <trkpt lat="43.52915" lon="1.45683">
        <ele>250.328019</ele>
        <time>2021-10-30T22:18:04.551Z</time>
      </trkpt>
      <trkpt lat="43.52898" lon="1.45708">
        <ele>251.31159</ele>
        <time>2021-10-30T22:18:14.650Z</time>
      </trkpt>
      <trkpt lat="43.52897" lon="1.4571">
        <ele>251.400701</ele>
        <time>2021-10-30T22:18:15.823Z</time>
      </trkpt>
      <trkpt lat="43.52889" lon="1.45719">
        <ele>251.814519</ele>
        <time>2021-10-30T22:18:19.209Z</time>
      </trkpt>
      <trkpt lat="43.52848" lon="1.45776">
        <ele>254.140719</ele>
        <time>2021-10-30T22:18:41.696Z</time>
      </trkpt>
      <trkpt lat="43.52831" lon="1.45797">
        <ele>254.783036</ele>
        <time>2021-10-30T22:18:49.609Z</time>
      </trkpt>
      <trkpt lat="43.52811" lon="1.4582">
        <ele>255.236804</ele>
        <time>2021-10-30T22:18:58.470Z</time>
      </trkpt>
      <trkpt lat="43.52794" lon="1.45843">
        <ele>255.668775</ele>
        <time>2021-10-30T22:19:06.645Z</time>
      </trkpt>
      <trkpt lat="43.5279" lon="1.45853">
        <ele>255.808641</ele>
        <time>2021-10-30T22:19:09.746Z</time>
      </trkpt>
      <trkpt lat="43.52784" lon="1.45859">
        <ele>255.94309</ele>
        <time>2021-10-30T22:19:12.040Z</time>
      </trkpt>
      <trkpt lat="43.52779" lon="1.45865">
        <ele>256.063744</ele>
        <time>2021-10-30T22:19:14.133Z</time>
      </trkpt>
      <trkpt lat="43.52769" lon="1.45878">
        <ele>256.304267</ele>
        <time>2021-10-30T22:19:18.484Z</time>
      </trkpt>
      <trkpt lat="43.52763" lon="1.45889">
        <ele>256.477179</ele>
        <time>2021-10-30T22:19:21.408Z</time>
      </trkpt>
      <trkpt lat="43.52758" lon="1.45896">
        <ele>256.616073</ele>
        <time>2021-10-30T22:19:23.334Z</time>
      </trkpt>
      <trkpt lat="43.52747" lon="1.45918">
        <ele>256.957869</ele>
        <time>2021-10-30T22:19:28.815Z</time>
      </trkpt>
      <trkpt lat="43.52738" lon="1.45941">
        <ele>257.286754</ele>
        <time>2021-10-30T22:19:33.431Z</time>
      </trkpt>
      <trkpt lat="43.52733" lon="1.45954">
        <ele>257.47607</ele>
        <time>2021-10-30T22:19:36.165Z</time>
      </trkpt>
      <trkpt lat="43.52718" lon="1.45985">
        <ele>257.476579</ele>
        <time>2021-10-30T22:19:42.724Z</time>
      </trkpt>
      <trkpt lat="43.52713" lon="1.45999">
        <ele>257.234288</ele>
        <time>2021-10-30T22:19:45.365Z</time>
      </trkpt>
      <trkpt lat="43.52694" lon="1.46025">
        <ele>256.670511</ele>
        <time>2021-10-30T22:19:51.001Z</time>
      </trkpt>
      <trkpt lat="43.52683" lon="1.46037">
        <ele>256.365798</ele>
        <time>2021-10-30T22:19:53.994Z</time>
      </trkpt>
      <trkpt lat="43.52676" lon="1.46043">
        <ele>256.195073</ele>
        <time>2021-10-30T22:19:55.568Z</time>
      </trkpt>
      <trkpt lat="43.52668" lon="1.46045">
        <ele>256.035134</ele>
        <time>2021-10-30T22:19:57.045Z</time>
      </trkpt>
      <trkpt lat="43.52668" lon="1.46045">
        <ele>256.035134</ele>
        <time>2021-10-30T22:19:57.054Z</time>
      </trkpt>
      <trkpt lat="43.52661" lon="1.46059">
        <ele>255.772198</ele>
        <time>2021-10-30T22:19:59.386Z</time>
      </trkpt>
      <trkpt lat="43.52602" lon="1.46112">
        <ele>254.288928</ele>
        <time>2021-10-30T22:20:11.310Z</time>
      </trkpt>
      <trkpt lat="43.52559" lon="1.46132">
        <ele>252.958833</ele>
        <time>2021-10-30T22:20:18.664Z</time>
      </trkpt>
      <trkpt lat="43.52521" lon="1.46148">
        <ele>251.640542</ele>
        <time>2021-10-30T22:20:25.118Z</time>
      </trkpt>
      <trkpt lat="43.52482" lon="1.46167">
        <ele>250.284199</ele>
        <time>2021-10-30T22:20:31.935Z</time>
      </trkpt>
      <trkpt lat="43.52476" lon="1.46171">
        <ele>250.056311</ele>
        <time>2021-10-30T22:20:32.941Z</time>
      </trkpt>
      <trkpt lat="43.5247" lon="1.46184">
        <ele>249.698715</ele>
        <time>2021-10-30T22:20:35.108Z</time>
      </trkpt>
      <trkpt lat="43.52462" lon="1.46216">
        <ele>248.874291</ele>
        <time>2021-10-30T22:20:39.204Z</time>
      </trkpt>
      <trkpt lat="43.52449" lon="1.46215">
        <ele>248.443806</ele>
        <time>2021-10-30T22:20:41.791Z</time>
      </trkpt>
      <trkpt lat="43.52423" lon="1.46213">
        <ele>248.141791</ele>
        <time>2021-10-30T22:20:46.258Z</time>
      </trkpt>
      <trkpt lat="43.52326" lon="1.46222">
        <ele>249.677162</ele>
        <time>2021-10-30T22:21:09.069Z</time>
      </trkpt>
      <trkpt lat="43.52303" lon="1.46226">
        <ele>250.055722</ele>
        <time>2021-10-30T22:21:18.872Z</time>
      </trkpt>
      <trkpt lat="43.52294" lon="1.46228">
        <ele>250.206412</ele>
        <time>2021-10-30T22:21:22.161Z</time>
      </trkpt>
      <trkpt lat="43.52269" lon="1.46232">
        <ele>250.6037</ele>
        <time>2021-10-30T22:21:32.931Z</time>
      </trkpt>
      <trkpt lat="43.5222" lon="1.46242">
        <ele>252.628079</ele>
        <time>2021-10-30T22:21:51.758Z</time>
      </trkpt>
      <trkpt lat="43.52204" lon="1.46247">
        <ele>253.470957</ele>
        <time>2021-10-30T22:21:59.412Z</time>
      </trkpt>
      <trkpt lat="43.52163" lon="1.46255">
        <ele>255.602533</ele>
        <time>2021-10-30T22:22:17.709Z</time>
      </trkpt>
      <trkpt lat="43.52102" lon="1.46274">
        <ele>258.798716</ele>
        <time>2021-10-30T22:22:45.459Z</time>
      </trkpt>
      <trkpt lat="43.52058" lon="1.46295">
        <ele>260.924744</ele>
        <time>2021-10-30T22:23:05.740Z</time>
      </trkpt>
      <trkpt lat="43.52042" lon="1.46301">
        <ele>261.57859</ele>
        <time>2021-10-30T22:23:12.495Z</time>
      </trkpt>
      <trkpt lat="43.52021" lon="1.4631">
        <ele>262.489222</ele>
        <time>2021-10-30T22:23:21.439Z</time>
      </trkpt>
      <trkpt lat="43.52003" lon="1.46315">
        <ele>263.1898</ele>
        <time>2021-10-30T22:23:28.101Z</time>
      </trkpt>
      <trkpt lat="43.51993" lon="1.46319">
        <ele>263.634993</ele>
        <time>2021-10-30T22:23:32.355Z</time>
      </trkpt>
      <trkpt lat="43.51913" lon="1.46328">
        <ele>266.834823</ele>
        <time>2021-10-30T22:24:01.728Z</time>
      </trkpt>
      <trkpt lat="43.51875" lon="1.46324">
        <ele>267.870782</ele>
        <time>2021-10-30T22:24:14.574Z</time>
      </trkpt>
      <trkpt lat="43.51791" lon="1.46297">
        <ele>269.840016</ele>
        <time>2021-10-30T22:24:42.074Z</time>
      </trkpt>
      <trkpt lat="43.51738" lon="1.46268">
        <ele>271.141086</ele>
        <time>2021-10-30T22:24:58.914Z</time>
      </trkpt>
      <trkpt lat="43.51711" lon="1.46255">
        <ele>271.283664</ele>
        <time>2021-10-30T22:25:07.032Z</time>
      </trkpt>
      <trkpt lat="43.51695" lon="1.46251">
        <ele>271.259557</ele>
        <time>2021-10-30T22:25:11.311Z</time>
      </trkpt>
      <trkpt lat="43.51659" lon="1.46244">
        <ele>271.203794</ele>
        <time>2021-10-30T22:25:20.719Z</time>
      </trkpt>
      <trkpt lat="43.51623" lon="1.4624">
        <ele>271.148922</ele>
        <time>2021-10-30T22:25:28.728Z</time>
      </trkpt>
      <trkpt lat="43.51587" lon="1.46236">
        <ele>271.094345</ele>
        <time>2021-10-30T22:25:35.647Z</time>
      </trkpt>
      <trkpt lat="43.51556" lon="1.46232">
        <ele>271.047516</ele>
        <time>2021-10-30T22:25:41.217Z</time>
      </trkpt>
      <trkpt lat="43.51522" lon="1.4623">
        <ele>270.146786</ele>
        <time>2021-10-30T22:25:47.129Z</time>
      </trkpt>
      <trkpt lat="43.51511" lon="1.46231">
        <ele>269.834708</ele>
        <time>2021-10-30T22:25:48.889Z</time>
      </trkpt>
      <trkpt lat="43.51469" lon="1.46241">
        <ele>268.613883</ele>
        <time>2021-10-30T22:25:55.934Z</time>
      </trkpt>
      <trkpt lat="43.51451" lon="1.46245">
        <ele>268.070737</ele>
        <time>2021-10-30T22:25:59.138Z</time>
      </trkpt>
      <trkpt lat="43.51437" lon="1.46245">
        <ele>267.664404</ele>
        <time>2021-10-30T22:26:01.319Z</time>
      </trkpt>
      <trkpt lat="43.51421" lon="1.46241">
        <ele>267.196175</ele>
        <time>2021-10-30T22:26:04.063Z</time>
      </trkpt>
      <trkpt lat="43.51415" lon="1.46238">
        <ele>267.031074</ele>
        <time>2021-10-30T22:26:04.982Z</time>
      </trkpt>
      <trkpt lat="43.51413" lon="1.46232">
        <ele>266.874528</ele>
        <time>2021-10-30T22:26:05.814Z</time>
      </trkpt>
      <trkpt lat="43.51409" lon="1.46227">
        <ele>266.740157</ele>
        <time>2021-10-30T22:26:06.510Z</time>
      </trkpt>
      <trkpt lat="43.51405" lon="1.46224">
        <ele>266.591682</ele>
        <time>2021-10-30T22:26:07.344Z</time>
      </trkpt>
      <trkpt lat="43.51397" lon="1.46223">
        <ele>266.38579</ele>
        <time>2021-10-30T22:26:08.536Z</time>
      </trkpt>
      <trkpt lat="43.51391" lon="1.46226">
        <ele>266.1874</ele>
        <time>2021-10-30T22:26:09.727Z</time>
      </trkpt>
      <trkpt lat="43.51385" lon="1.46232">
        <ele>265.986235</ele>
        <time>2021-10-30T22:26:10.844Z</time>
      </trkpt>
      <trkpt lat="43.51381" lon="1.46236">
        <ele>265.838426</ele>
        <time>2021-10-30T22:26:11.653Z</time>
      </trkpt>
      <trkpt lat="43.51364" lon="1.46239">
        <ele>265.488276</ele>
        <time>2021-10-30T22:26:14.307Z</time>
      </trkpt>
      <trkpt lat="43.5135" lon="1.46237">
        <ele>265.1924</ele>
        <time>2021-10-30T22:26:16.626Z</time>
      </trkpt>
      <trkpt lat="43.51337" lon="1.46232">
        <ele>264.913801</ele>
        <time>2021-10-30T22:26:18.694Z</time>
      </trkpt>
      <trkpt lat="43.51261" lon="1.46196">
        <ele>263.224428</ele>
        <time>2021-10-30T22:26:33.118Z</time>
      </trkpt>
      <trkpt lat="43.51199" lon="1.46166">
        <ele>261.945229</ele>
        <time>2021-10-30T22:26:45.649Z</time>
      </trkpt>
      <trkpt lat="43.5119" lon="1.46161">
        <ele>261.804012</ele>
        <time>2021-10-30T22:26:47.717Z</time>
      </trkpt>
      <trkpt lat="43.51114" lon="1.46121">
        <ele>260.634686</ele>
        <time>2021-10-30T22:27:03.655Z</time>
      </trkpt>
      <trkpt lat="43.51083" lon="1.46106">
        <ele>260.174297</ele>
        <time>2021-10-30T22:27:09.478Z</time>
      </trkpt>
      <trkpt lat="43.51035" lon="1.4609">
        <ele>259.400234</ele>
        <time>2021-10-30T22:27:18.213Z</time>
      </trkpt>
      <trkpt lat="43.50984" lon="1.46078">
        <ele>258.064618</ele>
        <time>2021-10-30T22:27:27.000Z</time>
      </trkpt>
      <trkpt lat="43.50938" lon="1.46068">
        <ele>256.869002</ele>
        <time>2021-10-30T22:27:34.706Z</time>
      </trkpt>
      <trkpt lat="43.50883" lon="1.46057">
        <ele>255.453491</ele>
        <time>2021-10-30T22:27:43.973Z</time>
      </trkpt>
      <trkpt lat="43.50843" lon="1.4605">
        <ele>254.336193</ele>
        <time>2021-10-30T22:27:50.757Z</time>
      </trkpt>
      <trkpt lat="43.50757" lon="1.46037">
        <ele>251.701307</ele>
        <time>2021-10-30T22:28:05.346Z</time>
      </trkpt>
      <trkpt lat="43.50739" lon="1.46033">
        <ele>251.143712</ele>
        <time>2021-10-30T22:28:08.280Z</time>
      </trkpt>
      <trkpt lat="43.50686" lon="1.46011">
        <ele>249.489415</ele>
        <time>2021-10-30T22:28:17.376Z</time>
      </trkpt>
      <trkpt lat="43.50668" lon="1.45998">
        <ele>248.493724</ele>
        <time>2021-10-30T22:28:20.564Z</time>
      </trkpt>
      <trkpt lat="43.50592" lon="1.45933">
        <ele>244.118873</ele>
        <time>2021-10-30T22:28:34.196Z</time>
      </trkpt>
      <trkpt lat="43.50577" lon="1.4592">
        <ele>243.242235</ele>
        <time>2021-10-30T22:28:36.868Z</time>
      </trkpt>
      <trkpt lat="43.50575" lon="1.45917">
        <ele>243.084724</ele>
        <time>2021-10-30T22:28:37.333Z</time>
      </trkpt>
      <trkpt lat="43.50534" lon="1.45883">
        <ele>240.762608</ele>
        <time>2021-10-30T22:28:44.283Z</time>
      </trkpt>
      <trkpt lat="43.50475" lon="1.45833">
        <ele>236.779564</ele>
        <time>2021-10-30T22:28:54.459Z</time>
      </trkpt>
      <trkpt lat="43.50416" lon="1.45781">
        <ele>232.692949</ele>
        <time>2021-10-30T22:29:04.982Z</time>
      </trkpt>
      <trkpt lat="43.50355" lon="1.45729">
        <ele>228.439553</ele>
        <time>2021-10-30T22:29:15.398Z</time>
      </trkpt>
      <trkpt lat="43.50267" lon="1.45669">
        <ele>222.275818</ele>
        <time>2021-10-30T22:29:29.989Z</time>
      </trkpt>
      <trkpt lat="43.50262" lon="1.45662">
        <ele>221.820914</ele>
        <time>2021-10-30T22:29:30.971Z</time>
      </trkpt>
      <trkpt lat="43.50255" lon="1.4565">
        <ele>221.111364</ele>
        <time>2021-10-30T22:29:32.540Z</time>
      </trkpt>
      <trkpt lat="43.50244" lon="1.45624">
        <ele>219.786237</ele>
        <time>2021-10-30T22:29:35.865Z</time>
      </trkpt>
      <trkpt lat="43.50238" lon="1.45582">
        <ele>217.582369</ele>
        <time>2021-10-30T22:29:40.227Z</time>
      </trkpt>
      <trkpt lat="43.50251" lon="1.45508">
        <ele>213.359322</ele>
        <time>2021-10-30T22:29:47.932Z</time>
      </trkpt>
      <trkpt lat="43.50252" lon="1.4548">
        <ele>211.768353</ele>
        <time>2021-10-30T22:29:50.884Z</time>
      </trkpt>
      <trkpt lat="43.50251" lon="1.45471">
        <ele>211.248345</ele>
        <time>2021-10-30T22:29:51.792Z</time>
      </trkpt>
      <trkpt lat="43.50248" lon="1.45461">
        <ele>210.671348</ele>
        <time>2021-10-30T22:29:52.847Z</time>
      </trkpt>
      <trkpt lat="43.50234" lon="1.45436">
        <ele>208.926833</ele>
        <time>2021-10-30T22:29:56.087Z</time>
      </trkpt>
      <trkpt lat="43.50223" lon="1.45427">
        <ele>207.910417</ele>
        <time>2021-10-30T22:29:57.977Z</time>
      </trkpt>
      <trkpt lat="43.50215" lon="1.45423">
        <ele>207.26795</ele>
        <time>2021-10-30T22:29:59.226Z</time>
      </trkpt>
      <trkpt lat="43.50208" lon="1.45421">
        <ele>206.721711</ele>
        <time>2021-10-30T22:30:00.186Z</time>
      </trkpt>
      <trkpt lat="43.5012" lon="1.45408">
        <ele>201.399259</ele>
        <time>2021-10-30T22:30:12.786Z</time>
      </trkpt>
      <trkpt lat="43.50095" lon="1.45413">
        <ele>199.983989</ele>
        <time>2021-10-30T22:30:16.444Z</time>
      </trkpt>
      <trkpt lat="43.50073" lon="1.45436">
        <ele>198.436561</ele>
        <time>2021-10-30T22:30:20.582Z</time>
      </trkpt>
      <trkpt lat="43.50018" lon="1.4552">
        <ele>194.77409</ele>
        <time>2021-10-30T22:30:33.730Z</time>
      </trkpt>
      <trkpt lat="43.50013" lon="1.45527">
        <ele>194.627022</ele>
        <time>2021-10-30T22:30:35.045Z</time>
      </trkpt>
      <trkpt lat="43.50006" lon="1.45535">
        <ele>194.461348</ele>
        <time>2021-10-30T22:30:36.522Z</time>
      </trkpt>
      <trkpt lat="43.49985" lon="1.45551">
        <ele>194.005051</ele>
        <time>2021-10-30T22:30:40.692Z</time>
      </trkpt>
      <trkpt lat="43.49955" lon="1.45554">
        <ele>193.431034</ele>
        <time>2021-10-30T22:30:46.076Z</time>
      </trkpt>
      <trkpt lat="43.49946" lon="1.45553">
        <ele>193.25668</ele>
        <time>2021-10-30T22:30:47.744Z</time>
      </trkpt>
      <trkpt lat="43.49949" lon="1.45595">
        <ele>192.675418</ele>
        <time>2021-10-30T22:30:55.465Z</time>
      </trkpt>
      <trkpt lat="43.49972" lon="1.45801">
        <ele>191.26092</ele>
        <time>2021-10-30T22:31:35.061Z</time>
      </trkpt>
      <trkpt lat="43.49973" lon="1.45806">
        <ele>191.23898</ele>
        <time>2021-10-30T22:31:36.155Z</time>
      </trkpt>
      <trkpt lat="43.49966" lon="1.4581">
        <ele>191.201025</ele>
        <time>2021-10-30T22:31:38.823Z</time>
      </trkpt>
      <trkpt lat="43.49958" lon="1.45874">
        <ele>190.958942</ele>
        <time>2021-10-30T22:31:56.379Z</time>
      </trkpt>
      <trkpt lat="43.49988" lon="1.45894">
        <ele>191.087231</ele>
        <time>2021-10-30T22:32:08.933Z</time>
      </trkpt>
      <trkpt lat="43.49993" lon="1.45905">
        <ele>191.211511</ele>
        <time>2021-10-30T22:32:12.593Z</time>
      </trkpt>
      <trkpt lat="43.49989" lon="1.45924">
        <ele>191.38949</ele>
        <time>2021-10-30T22:32:18.284Z</time>
      </trkpt>
      <trkpt lat="43.49979" lon="1.45957">
        <ele>191.723417</ele>
        <time>2021-10-30T22:32:28.914Z</time>
      </trkpt>
      <trkpt lat="43.49969" lon="1.4604">
        <ele>192.497035</ele>
        <time>2021-10-30T22:32:54.973Z</time>
      </trkpt>
      <trkpt lat="43.49954" lon="1.46086">
        <ele>192.961558</ele>
        <time>2021-10-30T22:33:11.477Z</time>
      </trkpt>
      <trkpt lat="43.49944" lon="1.46156">
        <ele>193.932988</ele>
        <time>2021-10-30T22:33:35.311Z</time>
      </trkpt>
      <trkpt lat="43.49911" lon="1.46256">
        <ele>195.638961</ele>
        <time>2021-10-30T22:34:11.457Z</time>
      </trkpt>
      <trkpt lat="43.49889" lon="1.46389">
        <ele>197.847789</ele>
        <time>2021-10-30T22:34:56.835Z</time>
      </trkpt>
      <trkpt lat="43.49899" lon="1.46405">
        <ele>198.216903</ele>
        <time>2021-10-30T22:35:03.845Z</time>
      </trkpt>
      <trkpt lat="43.49873" lon="1.46507">
        <ele>200.070652</ele>
        <time>2021-10-30T22:35:39.930Z</time>
      </trkpt>
      <trkpt lat="43.49851" lon="1.46513">
        <ele>200.617615</ele>
        <time>2021-10-30T22:35:50.805Z</time>
      </trkpt>
      <trkpt lat="43.49844" lon="1.46514">
        <ele>200.788838</ele>
        <time>2021-10-30T22:35:54.125Z</time>
      </trkpt>
      <trkpt lat="43.49835" lon="1.46514">
        <ele>201.000565</ele>
        <time>2021-10-30T22:35:58.262Z</time>
      </trkpt>
      <trkpt lat="43.49828" lon="1.46519">
        <ele>201.179903</ele>
        <time>2021-10-30T22:36:01.845Z</time>
      </trkpt>
      <trkpt lat="43.49827" lon="1.4652">
        <ele>201.20654</ele>
        <time>2021-10-30T22:36:02.546Z</time>
      </trkpt>
      <trkpt lat="43.4981" lon="1.46544">
        <ele>201.999234</ele>
        <time>2021-10-30T22:36:13.768Z</time>
      </trkpt>
      <trkpt lat="43.49795" lon="1.46556">
        <ele>202.605366</ele>
        <time>2021-10-30T22:36:22.305Z</time>
      </trkpt>
      <trkpt lat="43.49688" lon="1.46673">
        <ele>207.336299</ele>
        <time>2021-10-30T22:37:32.685Z</time>
      </trkpt>
      <trkpt lat="43.49632" lon="1.46703">
        <ele>209.940609</ele>
        <time>2021-10-30T22:38:06.112Z</time>
      </trkpt>
      <trkpt lat="43.49599" lon="1.46732">
        <ele>211.616649</ele>
        <time>2021-10-30T22:38:27.525Z</time>
      </trkpt>
      <trkpt lat="43.4957" lon="1.46758">
        <ele>213.155498</ele>
        <time>2021-10-30T22:38:47.268Z</time>
      </trkpt>
      <trkpt lat="43.49269" lon="1.471">
        <ele>229.5813</ele>
        <time>2021-10-30T22:42:16.570Z</time>
      </trkpt>
      <trkpt lat="43.49141" lon="1.47279">
        <ele>237.901909</ele>
        <time>2021-10-30T22:43:56.927Z</time>
      </trkpt>
      <trkpt lat="43.49109" lon="1.473">
        <ele>239.556295</ele>
        <time>2021-10-30T22:44:17.592Z</time>
      </trkpt>
      <trkpt lat="43.49053" lon="1.47317">
        <ele>242.331959</ele>
        <time>2021-10-30T22:44:51.563Z</time>
      </trkpt>
      <trkpt lat="43.49021" lon="1.47352">
        <ele>244.295558</ele>
        <time>2021-10-30T22:45:14.456Z</time>
      </trkpt>
      <trkpt lat="43.49001" lon="1.47386">
        <ele>245.804738</ele>
        <time>2021-10-30T22:45:31.969Z</time>
      </trkpt>
      <trkpt lat="43.49003" lon="1.47388">
        <ele>245.950575</ele>
        <time>2021-10-30T22:45:33.286Z</time>
      </trkpt>
      <trkpt lat="43.49001" lon="1.47386">
        <ele>246.096412</ele>
        <time>2021-10-30T22:45:34.214Z</time>
      </trkpt>
      <trkpt lat="43.48975" lon="1.47429">
        <ele>247.847455</ele>
        <time>2021-10-30T22:45:50.458Z</time>
      </trkpt>
      <trkpt lat="43.48973" lon="1.47422">
        <ele>248.031237</ele>
        <time>2021-10-30T22:45:52.902Z</time>
      </trkpt>
      <trkpt lat="43.48953" lon="1.47404">
        <ele>248.836104</ele>
        <time>2021-10-30T22:46:02.053Z</time>
      </trkpt>
      <trkpt lat="43.48924" lon="1.47394">
        <ele>249.839836</ele>
        <time>2021-10-30T22:46:13.487Z</time>
      </trkpt>
      <trkpt lat="43.48902" lon="1.4738">
        <ele>250.644191</ele>
        <time>2021-10-30T22:46:22.532Z</time>
      </trkpt>
      <trkpt lat="43.48895" lon="1.47409">
        <ele>251.383826</ele>
        <time>2021-10-30T22:46:30.081Z</time>
      </trkpt>
      <trkpt lat="43.48888" lon="1.47448">
        <ele>252.346629</ele>
        <time>2021-10-30T22:46:39.247Z</time>
      </trkpt>
      <trkpt lat="43.48885" lon="1.4746">
        <ele>252.659029</ele>
        <time>2021-10-30T22:46:42.333Z</time>
      </trkpt>
      <trkpt lat="43.48881" lon="1.47476">
        <ele>253.077789</ele>
        <time>2021-10-30T22:46:46.409Z</time>
      </trkpt>
      <trkpt lat="43.48862" lon="1.47547">
        <ele>254.349663</ele>
        <time>2021-10-30T22:47:02.992Z</time>
      </trkpt>
      <trkpt lat="43.48814" lon="1.47635">
        <ele>256.011474</ele>
        <time>2021-10-30T22:47:27.743Z</time>
      </trkpt>
      <trkpt lat="43.488" lon="1.47691">
        <ele>256.916444</ele>
        <time>2021-10-30T22:47:40.757Z</time>
      </trkpt>
      <trkpt lat="43.48799" lon="1.47747">
        <ele>257.591612</ele>
        <time>2021-10-30T22:47:52.513Z</time>
      </trkpt>
      <trkpt lat="43.48822" lon="1.47916">
        <ele>259.458364</ele>
        <time>2021-10-30T22:48:28.530Z</time>
      </trkpt>
      <trkpt lat="43.4882" lon="1.47952">
        <ele>259.85346</ele>
        <time>2021-10-30T22:48:35.171Z</time>
      </trkpt>
      <trkpt lat="43.48817" lon="1.47962">
        <ele>259.834762</ele>
        <time>2021-10-30T22:48:37.633Z</time>
      </trkpt>
      <trkpt lat="43.48813" lon="1.47974">
        <ele>259.805336</ele>
        <time>2021-10-30T22:48:39.890Z</time>
      </trkpt>
      <trkpt lat="43.48746" lon="1.48107">
        <ele>259.447223</ele>
        <time>2021-10-30T22:49:07.279Z</time>
      </trkpt>
      <trkpt lat="43.48728" lon="1.48156">
        <ele>259.323245</ele>
        <time>2021-10-30T22:49:14.918Z</time>
      </trkpt>
      <trkpt lat="43.48715" lon="1.48192">
        <ele>258.152746</ele>
        <time>2021-10-30T22:49:19.818Z</time>
      </trkpt>
      <trkpt lat="43.48706" lon="1.48219">
        <ele>257.102172</ele>
        <time>2021-10-30T22:49:23.257Z</time>
      </trkpt>
      <trkpt lat="43.48684" lon="1.48301">
        <ele>254.041299</ele>
        <time>2021-10-30T22:49:32.912Z</time>
      </trkpt>
      <trkpt lat="43.4868" lon="1.48323">
        <ele>253.230363</ele>
        <time>2021-10-30T22:49:35.378Z</time>
      </trkpt>
      <trkpt lat="43.48654" lon="1.48365">
        <ele>251.290166</ele>
        <time>2021-10-30T22:49:41.428Z</time>
      </trkpt>
      <trkpt lat="43.48578" lon="1.48475">
        <ele>244.655581</ele>
        <time>2021-10-30T22:49:57.734Z</time>
      </trkpt>
      <trkpt lat="43.4856" lon="1.48493">
        <ele>243.286979</ele>
        <time>2021-10-30T22:50:00.967Z</time>
      </trkpt>
      <trkpt lat="43.48261" lon="1.48639">
        <ele>231.562867</ele>
        <time>2021-10-30T22:50:52.918Z</time>
      </trkpt>
      <trkpt lat="43.48125" lon="1.48684">
        <ele>232.098971</ele>
        <time>2021-10-30T22:51:37.791Z</time>
      </trkpt>
      <trkpt lat="43.48051" lon="1.48705">
        <ele>234.166279</ele>
        <time>2021-10-30T22:52:06.431Z</time>
      </trkpt>
      <trkpt lat="43.48042" lon="1.48709">
        <ele>234.41281</ele>
        <time>2021-10-30T22:52:09.527Z</time>
      </trkpt>
      <trkpt lat="43.47917" lon="1.48859">
        <ele>238.220791</ele>
        <time>2021-10-30T22:53:01.869Z</time>
      </trkpt>
      <trkpt lat="43.47785" lon="1.49057">
        <ele>241.829778</ele>
        <time>2021-10-30T22:54:02.228Z</time>
      </trkpt>
      <trkpt lat="43.47776" lon="1.49067">
        <ele>242.042021</ele>
        <time>2021-10-30T22:54:06.585Z</time>
      </trkpt>
      <trkpt lat="43.47768" lon="1.49076">
        <ele>242.208992</ele>
        <time>2021-10-30T22:54:09.099Z</time>
      </trkpt>
      <trkpt lat="43.47723" lon="1.49117">
        <ele>242.802274</ele>
        <time>2021-10-30T22:54:24.464Z</time>
      </trkpt>
      <trkpt lat="43.47713" lon="1.49119">
        <ele>242.775536</ele>
        <time>2021-10-30T22:54:27.490Z</time>
      </trkpt>
      <trkpt lat="43.4771" lon="1.49124">
        <ele>242.762181</ele>
        <time>2021-10-30T22:54:28.417Z</time>
      </trkpt>
      <trkpt lat="43.47678" lon="1.49161">
        <ele>242.639841</ele>
        <time>2021-10-30T22:54:38.211Z</time>
      </trkpt>
      <trkpt lat="43.47668" lon="1.4918">
        <ele>242.591042</ele>
        <time>2021-10-30T22:54:42.134Z</time>
      </trkpt>
      <trkpt lat="43.47651" lon="1.49288">
        <ele>242.358356</ele>
        <time>2021-10-30T22:54:58.379Z</time>
      </trkpt>
      <trkpt lat="43.47652" lon="1.49299">
        <ele>242.33502</ele>
        <time>2021-10-30T22:54:59.854Z</time>
      </trkpt>
      <trkpt lat="43.47649" lon="1.49302">
        <ele>242.295106</ele>
        <time>2021-10-30T22:55:00.458Z</time>
      </trkpt>
      <trkpt lat="43.47625" lon="1.49381">
        <ele>241.274933</ele>
        <time>2021-10-30T22:55:12.451Z</time>
      </trkpt>
      <trkpt lat="43.47617" lon="1.49396">
        <ele>241.053133</ele>
        <time>2021-10-30T22:55:14.899Z</time>
      </trkpt>
      <trkpt lat="43.47536" lon="1.4948">
        <ele>239.400704</ele>
        <time>2021-10-30T22:55:34.206Z</time>
      </trkpt>
      <trkpt lat="43.47508" lon="1.49502">
        <ele>238.070949</ele>
        <time>2021-10-30T22:55:40.513Z</time>
      </trkpt>
      <trkpt lat="43.47493" lon="1.4951">
        <ele>237.381022</ele>
        <time>2021-10-30T22:55:43.390Z</time>
      </trkpt>
      <trkpt lat="43.4747" lon="1.49514">
        <ele>236.439584</ele>
        <time>2021-10-30T22:55:47.386Z</time>
      </trkpt>
      <trkpt lat="43.47466" lon="1.49514">
        <ele>236.26443</ele>
        <time>2021-10-30T22:55:48.035Z</time>
      </trkpt>
      <trkpt lat="43.47463" lon="1.49514">
        <ele>236.122531</ele>
        <time>2021-10-30T22:55:48.577Z</time>
      </trkpt>
      <trkpt lat="43.47452" lon="1.49513">
        <ele>235.674366</ele>
        <time>2021-10-30T22:55:50.235Z</time>
      </trkpt>
      <trkpt lat="43.47437" lon="1.4951">
        <ele>235.026264</ele>
        <time>2021-10-30T22:55:52.867Z</time>
      </trkpt>
      <trkpt lat="43.47424" lon="1.49507">
        <ele>234.469381</ele>
        <time>2021-10-30T22:55:54.944Z</time>
      </trkpt>
      <trkpt lat="43.47401" lon="1.49504">
        <ele>233.515439</ele>
        <time>2021-10-30T22:55:58.615Z</time>
      </trkpt>
      <trkpt lat="43.47373" lon="1.49506">
        <ele>232.338179</ele>
        <time>2021-10-30T22:56:02.983Z</time>
      </trkpt>
      <trkpt lat="43.47358" lon="1.49505">
        <ele>231.55043</ele>
        <time>2021-10-30T22:56:05.344Z</time>
      </trkpt>
      <trkpt lat="43.4735" lon="1.49505">
        <ele>230.922453</ele>
        <time>2021-10-30T22:56:06.543Z</time>
      </trkpt>
      <trkpt lat="43.47345" lon="1.49501">
        <ele>230.482059</ele>
        <time>2021-10-30T22:56:07.373Z</time>
      </trkpt>
      <trkpt lat="43.47335" lon="1.49485">
        <ele>229.277328</ele>
        <time>2021-10-30T22:56:09.577Z</time>
      </trkpt>
      <trkpt lat="43.47333" lon="1.49478">
        <ele>228.855262</ele>
        <time>2021-10-30T22:56:10.361Z</time>
      </trkpt>
      <trkpt lat="43.47322" lon="1.4951">
        <ele>226.852122</ele>
        <time>2021-10-30T22:56:16.766Z</time>
      </trkpt>
      <trkpt lat="43.4726" lon="1.4957">
        <ele>220.840136</ele>
        <time>2021-10-30T22:56:35.587Z</time>
      </trkpt>
      <trkpt lat="43.47234" lon="1.49572">
        <ele>218.778066</ele>
        <time>2021-10-30T22:56:42.134Z</time>
      </trkpt>
      <trkpt lat="43.47225" lon="1.49569">
        <ele>217.987073</ele>
        <time>2021-10-30T22:56:44.554Z</time>
      </trkpt>
      <trkpt lat="43.47225" lon="1.49541">
        <ele>216.979668</ele>
        <time>2021-10-30T22:56:47.653Z</time>
      </trkpt>
      <trkpt lat="43.47221" lon="1.49524">
        <ele>216.473435</ele>
        <time>2021-10-30T22:56:49.537Z</time>
      </trkpt>
      <trkpt lat="43.47214" lon="1.49517">
        <ele>216.104298</ele>
        <time>2021-10-30T22:56:50.943Z</time>
      </trkpt>
      <trkpt lat="43.47211" lon="1.49519">
        <ele>215.970171</ele>
        <time>2021-10-30T22:56:51.440Z</time>
      </trkpt>
      <trkpt lat="43.47193" lon="1.49521">
        <ele>215.253275</ele>
        <time>2021-10-30T22:56:54.341Z</time>
      </trkpt>
      <trkpt lat="43.47174" lon="1.49511">
        <ele>214.455254</ele>
        <time>2021-10-30T22:56:57.312Z</time>
      </trkpt>
      <trkpt lat="43.47164" lon="1.49489">
        <ele>213.726012</ele>
        <time>2021-10-30T22:57:00.256Z</time>
      </trkpt>
      <trkpt lat="43.47166" lon="1.49462">
        <ele>212.962652</ele>
        <time>2021-10-30T22:57:03.254Z</time>
      </trkpt>
      <trkpt lat="43.47183" lon="1.49407">
        <ele>211.247752</ele>
        <time>2021-10-30T22:57:10.704Z</time>
      </trkpt>
      <trkpt lat="43.47186" lon="1.49394">
        <ele>210.83042</ele>
        <time>2021-10-30T22:57:13.400Z</time>
      </trkpt>
      <trkpt lat="43.47145" lon="1.49369">
        <ele>211.657689</ele>
        <time>2021-10-30T22:57:25.129Z</time>
      </trkpt>
      <trkpt lat="43.47151" lon="1.49348">
        <ele>212.183464</ele>
        <time>2021-10-30T22:57:30.527Z</time>
      </trkpt>
      <trkpt lat="43.47153" lon="1.49339">
        <ele>212.386998</ele>
        <time>2021-10-30T22:57:32.592Z</time>
      </trkpt>
      <trkpt lat="43.47152" lon="1.4933">
        <ele>212.606732</ele>
        <time>2021-10-30T22:57:34.958Z</time>
      </trkpt>
      <trkpt lat="43.47076" lon="1.49452">
        <ele>216.412421</ele>
        <time>2021-10-30T22:58:20.966Z</time>
      </trkpt>
      <trkpt lat="43.46817" lon="1.49857">
        <ele>240.876046</ele>
        <time>2021-10-30T23:01:28.775Z</time>
      </trkpt>
      <trkpt lat="43.46677" lon="1.49989">
        <ele>250.916623</ele>
        <time>2021-10-30T23:02:46.392Z</time>
      </trkpt>
      <trkpt lat="43.46495" lon="1.50176">
        <ele>263.350424</ele>
        <time>2021-10-30T23:04:27.275Z</time>
      </trkpt>
      <trkpt lat="43.46434" lon="1.50266">
        <ele>267.980864</ele>
        <time>2021-10-30T23:05:05.315Z</time>
      </trkpt>
      <trkpt lat="43.46378" lon="1.50362">
        <ele>271.270972</ele>
        <time>2021-10-30T23:05:41.684Z</time>
      </trkpt>
      <trkpt lat="43.46294" lon="1.50509">
        <ele>275.167401</ele>
        <time>2021-10-30T23:06:25.761Z</time>
      </trkpt>
      <trkpt lat="43.46252" lon="1.50586">
        <ele>275.959097</ele>
        <time>2021-10-30T23:06:43.862Z</time>
      </trkpt>
      <trkpt lat="43.46192" lon="1.50722">
        <ele>277.44817</ele>
        <time>2021-10-30T23:07:11.812Z</time>
      </trkpt>
      <trkpt lat="43.46097" lon="1.50983">
        <ele>280.982783</ele>
        <time>2021-10-30T23:08:15.945Z</time>
      </trkpt>
      <trkpt lat="43.46083" lon="1.51024">
        <ele>281.552378</ele>
        <time>2021-10-30T23:08:26.595Z</time>
      </trkpt>
      <trkpt lat="43.46059" lon="1.51089">
        <ele>282.438303</ele>
        <time>2021-10-30T23:08:41.418Z</time>
      </trkpt>
      <trkpt lat="43.46019" lon="1.51201">
        <ele>282.860493</ele>
        <time>2021-10-30T23:09:04.629Z</time>
      </trkpt>
      <trkpt lat="43.46008" lon="1.51235">
        <ele>282.830005</ele>
        <time>2021-10-30T23:09:10.495Z</time>
      </trkpt>
      <trkpt lat="43.45999" lon="1.51262">
        <ele>282.806446</ele>
        <time>2021-10-30T23:09:14.918Z</time>
      </trkpt>
      <trkpt lat="43.45915" lon="1.51574">
        <ele>281.046432</ele>
        <time>2021-10-30T23:10:01.728Z</time>
      </trkpt>
      <trkpt lat="43.4588" lon="1.51902">
        <ele>277.986555</ele>
        <time>2021-10-30T23:10:47.378Z</time>
      </trkpt>
      <trkpt lat="43.45875" lon="1.51927">
        <ele>277.657429</ele>
        <time>2021-10-30T23:10:51.027Z</time>
      </trkpt>
      <trkpt lat="43.45872" lon="1.51943">
        <ele>277.454977</ele>
        <time>2021-10-30T23:10:53.117Z</time>
      </trkpt>
      <trkpt lat="43.45837" lon="1.52027">
        <ele>276.218189</ele>
        <time>2021-10-30T23:11:05.449Z</time>
      </trkpt>
      <trkpt lat="43.45821" lon="1.52054">
        <ele>275.785961</ele>
        <time>2021-10-30T23:11:09.877Z</time>
      </trkpt>
      <trkpt lat="43.45778" lon="1.52027">
        <ele>274.812435</ele>
        <time>2021-10-30T23:11:18.242Z</time>
      </trkpt>
      <trkpt lat="43.45746" lon="1.52008">
        <ele>274.084808</ele>
        <time>2021-10-30T23:11:28.897Z</time>
      </trkpt>
      <trkpt lat="43.45714" lon="1.51991">
        <ele>273.365032</ele>
        <time>2021-10-30T23:11:39.457Z</time>
      </trkpt>
      <trkpt lat="43.45709" lon="1.51991">
        <ele>273.273673</ele>
        <time>2021-10-30T23:11:40.592Z</time>
      </trkpt>
      <trkpt lat="43.45706" lon="1.51994">
        <ele>273.190554</ele>
        <time>2021-10-30T23:11:42.119Z</time>
      </trkpt>
      <trkpt lat="43.45688" lon="1.5204">
        <ele>272.405787</ele>
        <time>2021-10-30T23:11:53.944Z</time>
      </trkpt>
      <trkpt lat="43.45677" lon="1.52058">
        <ele>272.056072</ele>
        <time>2021-10-30T23:12:00.671Z</time>
      </trkpt>
      <trkpt lat="43.45671" lon="1.52054">
        <ele>272.067057</ele>
        <time>2021-10-30T23:12:01.911Z</time>
      </trkpt>
      <trkpt lat="43.45612" lon="1.52028">
        <ele>272.402972</ele>
        <time>2021-10-30T23:12:15.547Z</time>
      </trkpt>
      <trkpt lat="43.45671" lon="1.52054">
        <ele>272.738887</ele>
        <time>2021-10-30T23:12:30.563Z</time>
      </trkpt>
      <trkpt lat="43.45677" lon="1.52058">
        <ele>272.777447</ele>
        <time>2021-10-30T23:12:32.998Z</time>
      </trkpt>
      <trkpt lat="43.45672" lon="1.52069">
        <ele>272.827966</ele>
        <time>2021-10-30T23:12:35.421Z</time>
      </trkpt>
      <trkpt lat="43.45641" lon="1.52118">
        <ele>273.205663</ele>
        <time>2021-10-30T23:12:50.969Z</time>
      </trkpt>
      <trkpt lat="43.45628" lon="1.52153">
        <ele>273.604955</ele>
        <time>2021-10-30T23:13:00.702Z</time>
      </trkpt>
      <trkpt lat="43.45629" lon="1.52163">
        <ele>273.70499</ele>
        <time>2021-10-30T23:13:04.242Z</time>
      </trkpt>
      <trkpt lat="43.45624" lon="1.52165">
        <ele>273.772195</ele>
        <time>2021-10-30T23:13:06.103Z</time>
      </trkpt>
      <trkpt lat="43.45619" lon="1.52169">
        <ele>273.855052</ele>
        <time>2021-10-30T23:13:08.087Z</time>
      </trkpt>
      <trkpt lat="43.45616" lon="1.52173">
        <ele>273.925484</ele>
        <time>2021-10-30T23:13:09.940Z</time>
      </trkpt>
      <trkpt lat="43.4561" lon="1.52186">
        <ele>274.081123</ele>
        <time>2021-10-30T23:13:13.364Z</time>
      </trkpt>
      <trkpt lat="43.45682" lon="1.52231">
        <ele>275.187174</ele>
        <time>2021-10-30T23:13:36.548Z</time>
      </trkpt>
      <trkpt lat="43.45684" lon="1.52232">
        <ele>275.227547</ele>
        <time>2021-10-30T23:13:38.116Z</time>
      </trkpt>
      <trkpt lat="43.45691" lon="1.52236">
        <ele>275.332471</ele>
        <time>2021-10-30T23:13:39.488Z</time>
      </trkpt>
      <trkpt lat="43.45706" lon="1.52244">
        <ele>275.393205</ele>
        <time>2021-10-30T23:13:42.106Z</time>
      </trkpt>
      <trkpt lat="43.45726" lon="1.52254">
        <ele>274.185553</ele>
        <time>2021-10-30T23:13:46.101Z</time>
      </trkpt>
      <trkpt lat="43.45734" lon="1.52263">
        <ele>273.631059</ele>
        <time>2021-10-30T23:13:47.636Z</time>
      </trkpt>
      <trkpt lat="43.45737" lon="1.52268">
        <ele>273.352506</ele>
        <time>2021-10-30T23:13:48.382Z</time>
      </trkpt>
      <trkpt lat="43.45736" lon="1.52276">
        <ele>273.005014</ele>
        <time>2021-10-30T23:13:49.343Z</time>
      </trkpt>
      <trkpt lat="43.4574" lon="1.52283">
        <ele>272.655683</ele>
        <time>2021-10-30T23:13:51.149Z</time>
      </trkpt>
      <trkpt lat="43.45757" lon="1.52332">
        <ele>270.440349</ele>
        <time>2021-10-30T23:13:59.604Z</time>
      </trkpt>
      <trkpt lat="43.45762" lon="1.52349">
        <ele>269.67096</ele>
        <time>2021-10-30T23:14:02.369Z</time>
      </trkpt>
      <trkpt lat="43.45799" lon="1.52391">
        <ele>266.976626</ele>
        <time>2021-10-30T23:14:14.701Z</time>
      </trkpt>
      <trkpt lat="43.45956" lon="1.5259">
        <ele>244.809549</ele>
        <time>2021-10-30T23:15:06.101Z</time>
      </trkpt>
      <trkpt lat="43.45975" lon="1.52607">
        <ele>242.166326</ele>
        <time>2021-10-30T23:15:11.543Z</time>
      </trkpt>
      <trkpt lat="43.45998" lon="1.52618">
        <ele>239.358654</ele>
        <time>2021-10-30T23:15:17.451Z</time>
      </trkpt>
      <trkpt lat="43.46" lon="1.52619">
        <ele>239.084825</ele>
        <time>2021-10-30T23:15:17.978Z</time>
      </trkpt>
      <trkpt lat="43.46027" lon="1.52629">
        <ele>235.835148</ele>
        <time>2021-10-30T23:15:24.768Z</time>
      </trkpt>
      <trkpt lat="43.46166" lon="1.52684">
        <ele>220.22617</ele>
        <time>2021-10-30T23:15:59.208Z</time>
      </trkpt>
      <trkpt lat="43.46237" lon="1.5272">
        <ele>213.060297</ele>
        <time>2021-10-30T23:16:17.954Z</time>
      </trkpt>
      <trkpt lat="43.46265" lon="1.52742">
        <ele>209.982156</ele>
        <time>2021-10-30T23:16:26.179Z</time>
      </trkpt>
      <trkpt lat="43.46285" lon="1.52791">
        <ele>206.994722</ele>
        <time>2021-10-30T23:16:36.749Z</time>
      </trkpt>
      <trkpt lat="43.46293" lon="1.52797">
        <ele>206.631354</ele>
        <time>2021-10-30T23:16:39.037Z</time>
      </trkpt>
      <trkpt lat="43.46298" lon="1.52799">
        <ele>206.38635</ele>
        <time>2021-10-30T23:16:40.410Z</time>
      </trkpt>
      <trkpt lat="43.46312" lon="1.52789">
        <ele>205.745168</ele>
        <time>2021-10-30T23:16:44.714Z</time>
      </trkpt>
      <trkpt lat="43.46317" lon="1.52807">
        <ele>205.143479</ele>
        <time>2021-10-30T23:16:48.604Z</time>
      </trkpt>
      <trkpt lat="43.46339" lon="1.52895">
        <ele>202.302839</ele>
        <time>2021-10-30T23:17:07.616Z</time>
      </trkpt>
      <trkpt lat="43.46377" lon="1.52976">
        <ele>200.396368</ele>
        <time>2021-10-30T23:17:29.794Z</time>
      </trkpt>
      <trkpt lat="43.46375" lon="1.53018">
        <ele>200.853535</ele>
        <time>2021-10-30T23:17:41.872Z</time>
      </trkpt>
      <trkpt lat="43.46361" lon="1.5303">
        <ele>201.102689</ele>
        <time>2021-10-30T23:17:48.929Z</time>
      </trkpt>
      <trkpt lat="43.46358" lon="1.53035">
        <ele>201.172892</ele>
        <time>2021-10-30T23:17:50.780Z</time>
      </trkpt>
      <trkpt lat="43.46359" lon="1.53041">
        <ele>201.237488</ele>
        <time>2021-10-30T23:17:52.623Z</time>
      </trkpt>
      <trkpt lat="43.4638" lon="1.53033">
        <ele>201.569596</ele>
        <time>2021-10-30T23:17:59.470Z</time>
      </trkpt>
      <trkpt lat="43.46417" lon="1.53026">
        <ele>202.124848</ele>
        <time>2021-10-30T23:18:11.193Z</time>
      </trkpt>
      <trkpt lat="43.46454" lon="1.5303">
        <ele>202.680516</ele>
        <time>2021-10-30T23:18:23.853Z</time>
      </trkpt>
      <trkpt lat="43.46499" lon="1.53041">
        <ele>204.308082</ele>
        <time>2021-10-30T23:18:40.730Z</time>
      </trkpt>
      <trkpt lat="43.46516" lon="1.53053">
        <ele>205.100002</ele>
        <time>2021-10-30T23:18:48.968Z</time>
      </trkpt>
      <trkpt lat="43.46526" lon="1.53077">
        <ele>205.922871</ele>
        <time>2021-10-30T23:18:57.120Z</time>
      </trkpt>
      <trkpt lat="43.46528" lon="1.53106">
        <ele>206.798532</ele>
        <time>2021-10-30T23:19:05.424Z</time>
      </trkpt>
      <trkpt lat="43.46523" lon="1.53138">
        <ele>207.775302</ele>
        <time>2021-10-30T23:19:15.126Z</time>
      </trkpt>
      <trkpt lat="43.46505" lon="1.532">
        <ele>209.746205</ele>
        <time>2021-10-30T23:19:33.651Z</time>
      </trkpt>
      <trkpt lat="43.46495" lon="1.53232">
        <ele>210.63043</ele>
        <time>2021-10-30T23:19:43.900Z</time>
      </trkpt>
      <trkpt lat="43.46468" lon="1.53323">
        <ele>212.726185</ele>
        <time>2021-10-30T23:20:10.735Z</time>
      </trkpt>
      <trkpt lat="43.46261" lon="1.54005">
        <ele>226.605908</ele>
        <time>2021-10-30T23:23:06.075Z</time>
      </trkpt>
      <trkpt lat="43.46259" lon="1.54043">
        <ele>226.995184</ele>
        <time>2021-10-30T23:23:13.838Z</time>
      </trkpt>
      <trkpt lat="43.46267" lon="1.54065">
        <ele>227.247254</ele>
        <time>2021-10-30T23:23:18.076Z</time>
      </trkpt>
      <trkpt lat="43.4628" lon="1.54082">
        <ele>227.503739</ele>
        <time>2021-10-30T23:23:22.862Z</time>
      </trkpt>
      <trkpt lat="43.46288" lon="1.54087">
        <ele>227.626666</ele>
        <time>2021-10-30T23:23:24.510Z</time>
      </trkpt>
      <trkpt lat="43.46295" lon="1.54089">
        <ele>227.725927</ele>
        <time>2021-10-30T23:23:26.454Z</time>
      </trkpt>
      <trkpt lat="43.46459" lon="1.54102">
        <ele>226.58543</ele>
        <time>2021-10-30T23:23:59.374Z</time>
      </trkpt>
      <trkpt lat="43.46591" lon="1.54103">
        <ele>224.614685</ele>
        <time>2021-10-30T23:24:22.252Z</time>
      </trkpt>
      <trkpt lat="43.46649" lon="1.54128">
        <ele>223.594796</ele>
        <time>2021-10-30T23:24:33.063Z</time>
      </trkpt>
      <trkpt lat="43.4667" lon="1.5414">
        <ele>223.268873</ele>
        <time>2021-10-30T23:24:37.213Z</time>
      </trkpt>
      <trkpt lat="43.46699" lon="1.54156">
        <ele>223.46356</ele>
        <time>2021-10-30T23:24:43.842Z</time>
      </trkpt>
      <trkpt lat="43.46783" lon="1.54198">
        <ele>224.017418</ele>
        <time>2021-10-30T23:25:06.441Z</time>
      </trkpt>
      <trkpt lat="43.46854" lon="1.54218">
        <ele>224.347769</ele>
        <time>2021-10-30T23:25:27.866Z</time>
      </trkpt>
      <trkpt lat="43.46889" lon="1.54224">
        <ele>224.306599</ele>
        <time>2021-10-30T23:25:37.571Z</time>
      </trkpt>
      <trkpt lat="43.46919" lon="1.54239">
        <ele>224.268358</ele>
        <time>2021-10-30T23:25:45.824Z</time>
      </trkpt>
      <trkpt lat="43.46959" lon="1.54262">
        <ele>224.217407</ele>
        <time>2021-10-30T23:25:55.919Z</time>
      </trkpt>
      <trkpt lat="43.46986" lon="1.54288">
        <ele>224.178597</ele>
        <time>2021-10-30T23:26:01.964Z</time>
      </trkpt>
      <trkpt lat="43.47051" lon="1.54354">
        <ele>221.280112</ele>
        <time>2021-10-30T23:26:15.100Z</time>
      </trkpt>
      <trkpt lat="43.47063" lon="1.54366">
        <ele>220.542398</ele>
        <time>2021-10-30T23:26:17.521Z</time>
      </trkpt>
      <trkpt lat="43.47077" lon="1.54384">
        <ele>219.625875</ele>
        <time>2021-10-30T23:26:20.459Z</time>
      </trkpt>
      <trkpt lat="43.47096" lon="1.54437">
        <ele>217.56398</ele>
        <time>2021-10-30T23:26:26.775Z</time>
      </trkpt>
      <trkpt lat="43.47126" lon="1.54481">
        <ele>215.422375</ele>
        <time>2021-10-30T23:26:33.119Z</time>
      </trkpt>
      <trkpt lat="43.47158" lon="1.54501">
        <ele>212.259439</ele>
        <time>2021-10-30T23:26:38.143Z</time>
      </trkpt>
      <trkpt lat="43.47176" lon="1.54502">
        <ele>210.667501</ele>
        <time>2021-10-30T23:26:40.650Z</time>
      </trkpt>
      <trkpt lat="43.47219" lon="1.54499">
        <ele>206.906197</ele>
        <time>2021-10-30T23:26:46.485Z</time>
      </trkpt>
      <trkpt lat="43.47205" lon="1.54677">
        <ele>194.685254</ele>
        <time>2021-10-30T23:27:04.167Z</time>
      </trkpt>
      <trkpt lat="43.47199" lon="1.54727">
        <ele>190.872094</ele>
        <time>2021-10-30T23:27:09.152Z</time>
      </trkpt>
      <trkpt lat="43.4719" lon="1.54762">
        <ele>188.145891</ele>
        <time>2021-10-30T23:27:12.698Z</time>
      </trkpt>
      <trkpt lat="43.4722" lon="1.5478">
        <ele>184.784987</ele>
        <time>2021-10-30T23:27:17.277Z</time>
      </trkpt>
      <trkpt lat="43.47251" lon="1.54814">
        <ele>180.711149</ele>
        <time>2021-10-30T23:27:22.909Z</time>
      </trkpt>
      <trkpt lat="43.47258" lon="1.54834">
        <ele>179.449503</ele>
        <time>2021-10-30T23:27:25.194Z</time>
      </trkpt>
      <trkpt lat="43.4726" lon="1.54846">
        <ele>178.75248</ele>
        <time>2021-10-30T23:27:26.437Z</time>
      </trkpt>
      <trkpt lat="43.47236" lon="1.54888">
        <ele>175.693217</ele>
        <time>2021-10-30T23:27:31.966Z</time>
      </trkpt>
      <trkpt lat="43.47221" lon="1.54916">
        <ele>173.684083</ele>
        <time>2021-10-30T23:27:35.679Z</time>
      </trkpt>
      <trkpt lat="43.4722" lon="1.54918">
        <ele>173.474274</ele>
        <time>2021-10-30T23:27:36.070Z</time>
      </trkpt>
      <trkpt lat="43.47206" lon="1.54942">
        <ele>171.730274</ele>
        <time>2021-10-30T23:27:39.326Z</time>
      </trkpt>
      <trkpt lat="43.47226" lon="1.54966">
        <ele>169.644331</ele>
        <time>2021-10-30T23:27:43.106Z</time>
      </trkpt>
      <trkpt lat="43.47246" lon="1.54988">
        <ele>167.631952</ele>
        <time>2021-10-30T23:27:46.810Z</time>
      </trkpt>
      <trkpt lat="43.47259" lon="1.55005">
        <ele>166.462461</ele>
        <time>2021-10-30T23:27:49.397Z</time>
      </trkpt>
      <trkpt lat="43.47294" lon="1.55048">
        <ele>165.041778</ele>
        <time>2021-10-30T23:27:56.631Z</time>
      </trkpt>
      <trkpt lat="43.47317" lon="1.55078">
        <ele>164.07083</ele>
        <time>2021-10-30T23:28:01.826Z</time>
      </trkpt>
      <trkpt lat="43.47336" lon="1.55098">
        <ele>163.352228</ele>
        <time>2021-10-30T23:28:05.951Z</time>
      </trkpt>
      <trkpt lat="43.47342" lon="1.55093">
        <ele>163.142891</ele>
        <time>2021-10-30T23:28:07.191Z</time>
      </trkpt>
      <trkpt lat="43.4735" lon="1.55087">
        <ele>162.852574</ele>
        <time>2021-10-30T23:28:09.165Z</time>
      </trkpt>
      <trkpt lat="43.47406" lon="1.55026">
        <ele>160.873046</ele>
        <time>2021-10-30T23:28:22.237Z</time>
      </trkpt>
      <trkpt lat="43.47425" lon="1.55006">
        <ele>160.455085</ele>
        <time>2021-10-30T23:28:26.424Z</time>
      </trkpt>
      <trkpt lat="43.47545" lon="1.551">
        <ele>158.018016</ele>
        <time>2021-10-30T23:28:51.008Z</time>
      </trkpt>
      <trkpt lat="43.47615" lon="1.55154">
        <ele>157.360723</ele>
        <time>2021-10-30T23:29:05.709Z</time>
      </trkpt>
      <trkpt lat="43.47644" lon="1.55176">
        <ele>157.092221</ele>
        <time>2021-10-30T23:29:12.436Z</time>
      </trkpt>
      <trkpt lat="43.47666" lon="1.55193">
        <ele>156.891685</ele>
        <time>2021-10-30T23:29:17.947Z</time>
      </trkpt>
      <trkpt lat="43.47687" lon="1.55208">
        <ele>156.703833</ele>
        <time>2021-10-30T23:29:23.182Z</time>
      </trkpt>
      <trkpt lat="43.47692" lon="1.55202">
        <ele>156.651417</ele>
        <time>2021-10-30T23:29:24.736Z</time>
      </trkpt>
      <trkpt lat="43.47721" lon="1.5516">
        <ele>156.558358</ele>
        <time>2021-10-30T23:29:34.355Z</time>
      </trkpt>
      <trkpt lat="43.47692" lon="1.55202">
        <ele>156.577588</ele>
        <time>2021-10-30T23:29:44.645Z</time>
      </trkpt>
      <trkpt lat="43.47687" lon="1.55208">
        <ele>156.580616</ele>
        <time>2021-10-30T23:29:46.236Z</time>
      </trkpt>
      <trkpt lat="43.47705" lon="1.55222">
        <ele>156.589936</ele>
        <time>2021-10-30T23:29:51.176Z</time>
      </trkpt>
      <trkpt lat="43.4774" lon="1.55248">
        <ele>156.608199</ele>
        <time>2021-10-30T23:30:00.014Z</time>
      </trkpt>
      <trkpt lat="43.47743" lon="1.5525">
        <ele>156.609683</ele>
        <time>2021-10-30T23:30:00.728Z</time>
      </trkpt>
      <trkpt lat="43.47745" lon="1.55252">
        <ele>156.611124</ele>
        <time>2021-10-30T23:30:01.276Z</time>
      </trkpt>
      <trkpt lat="43.4776" lon="1.55277">
        <ele>156.621793</ele>
        <time>2021-10-30T23:30:06.281Z</time>
      </trkpt>
      <trkpt lat="43.47762" lon="1.5528">
        <ele>156.623068</ele>
        <time>2021-10-30T23:30:06.879Z</time>
      </trkpt>
      <trkpt lat="43.47801" lon="1.55237">
        <ele>156.567219</ele>
        <time>2021-10-30T23:30:17.788Z</time>
      </trkpt>
      <trkpt lat="43.47869" lon="1.5515">
        <ele>156.422117</ele>
        <time>2021-10-30T23:30:38.377Z</time>
      </trkpt>
      <trkpt lat="43.47998" lon="1.55059">
        <ele>156.406726</ele>
        <time>2021-10-30T23:31:12.460Z</time>
      </trkpt>
      <trkpt lat="43.48041" lon="1.55015">
        <ele>156.439718</ele>
        <time>2021-10-30T23:31:25.115Z</time>
      </trkpt>
      <trkpt lat="43.48057" lon="1.5498">
        <ele>156.45709</ele>
        <time>2021-10-30T23:31:32.251Z</time>
      </trkpt>
      <trkpt lat="43.48068" lon="1.54938">
        <ele>156.434873</ele>
        <time>2021-10-30T23:31:39.778Z</time>
      </trkpt>
      <trkpt lat="43.4808" lon="1.54852">
        <ele>156.391114</ele>
        <time>2021-10-30T23:31:54.426Z</time>
      </trkpt>
      <trkpt lat="43.48094" lon="1.54827">
        <ele>156.375169</ele>
        <time>2021-10-30T23:31:59.710Z</time>
      </trkpt>
      <trkpt lat="43.48197" lon="1.54763">
        <ele>156.217769</ele>
        <time>2021-10-30T23:32:25.086Z</time>
      </trkpt>
      <trkpt lat="43.48289" lon="1.54679">
        <ele>155.977519</ele>
        <time>2021-10-30T23:32:49.413Z</time>
      </trkpt>
      <trkpt lat="43.48318" lon="1.54671">
        <ele>155.953067</ele>
        <time>2021-10-30T23:32:56.026Z</time>
      </trkpt>
      <trkpt lat="43.48385" lon="1.54686">
        <ele>156.02403</ele>
        <time>2021-10-30T23:33:11.875Z</time>
      </trkpt>
      <trkpt lat="43.48413" lon="1.54684">
        <ele>156.05271</ele>
        <time>2021-10-30T23:33:18.465Z</time>
      </trkpt>
      <trkpt lat="43.48502" lon="1.54651">
        <ele>156.181547</ele>
        <time>2021-10-30T23:33:40.873Z</time>
      </trkpt>
      <trkpt lat="43.48618" lon="1.54627">
        <ele>156.496822</ele>
        <time>2021-10-30T23:34:09.478Z</time>
      </trkpt>
      <trkpt lat="43.48693" lon="1.5459">
        <ele>156.744424</ele>
        <time>2021-10-30T23:34:28.631Z</time>
      </trkpt>
      <trkpt lat="43.48747" lon="1.54539">
        <ele>156.978233</ele>
        <time>2021-10-30T23:34:44.422Z</time>
      </trkpt>
      <trkpt lat="43.48824" lon="1.54422">
        <ele>157.478772</ele>
        <time>2021-10-30T23:35:13.203Z</time>
      </trkpt>
      <trkpt lat="43.48918" lon="1.54293">
        <ele>158.263036</ele>
        <time>2021-10-30T23:35:47.440Z</time>
      </trkpt>
      <trkpt lat="43.48936" lon="1.54258">
        <ele>158.339608</ele>
        <time>2021-10-30T23:35:55.405Z</time>
      </trkpt>
      <trkpt lat="43.48958" lon="1.54197">
        <ele>158.386931</ele>
        <time>2021-10-30T23:36:07.695Z</time>
      </trkpt>
      <trkpt lat="43.48973" lon="1.54107">
        <ele>158.451189</ele>
        <time>2021-10-30T23:36:23.274Z</time>
      </trkpt>
      <trkpt lat="43.48979" lon="1.54003">
        <ele>158.231247</ele>
        <time>2021-10-30T23:36:39.837Z</time>
      </trkpt>
      <trkpt lat="43.48978" lon="1.53935">
        <ele>157.85822</ele>
        <time>2021-10-30T23:36:50.142Z</time>
      </trkpt>
      <trkpt lat="43.48965" lon="1.53812">
        <ele>157.181112</ele>
        <time>2021-10-30T23:37:08.373Z</time>
      </trkpt>
      <trkpt lat="43.48961" lon="1.53717">
        <ele>156.484092</ele>
        <time>2021-10-30T23:37:22.131Z</time>
      </trkpt>
      <trkpt lat="43.48976" lon="1.53668">
        <ele>156.078202</ele>
        <time>2021-10-30T23:37:29.984Z</time>
      </trkpt>
      <trkpt lat="43.48998" lon="1.53639">
        <ele>155.766247</ele>
        <time>2021-10-30T23:37:36.034Z</time>
      </trkpt>
      <trkpt lat="43.49037" lon="1.53623">
        <ele>155.344325</ele>
        <time>2021-10-30T23:37:44.236Z</time>
      </trkpt>
      <trkpt lat="43.4917" lon="1.53658">
        <ele>154.282418</ele>
        <time>2021-10-30T23:38:11.878Z</time>
      </trkpt>
      <trkpt lat="43.49233" lon="1.53664">
        <ele>153.860333</ele>
        <time>2021-10-30T23:38:25.323Z</time>
      </trkpt>
      <trkpt lat="43.49304" lon="1.53662">
        <ele>153.746193</ele>
        <time>2021-10-30T23:38:40.877Z</time>
      </trkpt>
      <trkpt lat="43.49369" lon="1.53655">
        <ele>153.64136</ele>
        <time>2021-10-30T23:38:55.757Z</time>
      </trkpt>
      <trkpt lat="43.49471" lon="1.53628">
        <ele>154.081373</ele>
        <time>2021-10-30T23:39:20.866Z</time>
      </trkpt>
      <trkpt lat="43.49539" lon="1.53605">
        <ele>154.565603</ele>
        <time>2021-10-30T23:39:39.605Z</time>
      </trkpt>
      <trkpt lat="43.49599" lon="1.53576">
        <ele>155.13614</ele>
        <time>2021-10-30T23:39:57.091Z</time>
      </trkpt>
      <trkpt lat="43.49602" lon="1.53573">
        <ele>155.182126</ele>
        <time>2021-10-30T23:39:58.295Z</time>
      </trkpt>
      <trkpt lat="43.49627" lon="1.53548">
        <ele>155.565642</ele>
        <time>2021-10-30T23:40:06.982Z</time>
      </trkpt>
      <trkpt lat="43.49679" lon="1.53486">
        <ele>156.392313</ele>
        <time>2021-10-30T23:40:26.189Z</time>
      </trkpt>
      <trkpt lat="43.49768" lon="1.53328">
        <ele>157.980713</ele>
        <time>2021-10-30T23:41:07.760Z</time>
      </trkpt>
      <trkpt lat="43.49774" lon="1.53317">
        <ele>158.083222</ele>
        <time>2021-10-30T23:41:10.753Z</time>
      </trkpt>
      <trkpt lat="43.49845" lon="1.53223">
        <ele>158.873676</ele>
        <time>2021-10-30T23:41:35.843Z</time>
      </trkpt>
      <trkpt lat="43.50005" lon="1.53073">
        <ele>158.833986</ele>
        <time>2021-10-30T23:42:20.047Z</time>
      </trkpt>
      <trkpt lat="43.50131" lon="1.52923">
        <ele>158.433913</ele>
        <time>2021-10-30T23:42:56.683Z</time>
      </trkpt>
      <trkpt lat="43.50272" lon="1.52802">
        <ele>158.064214</ele>
        <time>2021-10-30T23:43:34.087Z</time>
      </trkpt>
      <trkpt lat="43.50347" lon="1.52713">
        <ele>157.729025</ele>
        <time>2021-10-30T23:43:56.209Z</time>
      </trkpt>
      <trkpt lat="43.50364" lon="1.52679">
        <ele>157.628883</ele>
        <time>2021-10-30T23:44:02.715Z</time>
      </trkpt>
      <trkpt lat="43.50385" lon="1.52599">
        <ele>157.33247</ele>
        <time>2021-10-30T23:44:16.084Z</time>
      </trkpt>
      <trkpt lat="43.50422" lon="1.52417">
        <ele>156.226951</ele>
        <time>2021-10-30T23:44:44.144Z</time>
      </trkpt>
      <trkpt lat="43.50424" lon="1.52391">
        <ele>156.074033</ele>
        <time>2021-10-30T23:44:47.954Z</time>
      </trkpt>
      <trkpt lat="43.50423" lon="1.52365">
        <ele>155.926882</ele>
        <time>2021-10-30T23:44:51.814Z</time>
      </trkpt>
      <trkpt lat="43.50422" lon="1.52345">
        <ele>155.815291</ele>
        <time>2021-10-30T23:44:54.750Z</time>
      </trkpt>
      <trkpt lat="43.50422" lon="1.52342">
        <ele>155.797689</ele>
        <time>2021-10-30T23:44:55.157Z</time>
      </trkpt>
      <trkpt lat="43.50428" lon="1.52236">
        <ele>155.191975</ele>
        <time>2021-10-30T23:45:11.025Z</time>
      </trkpt>
      <trkpt lat="43.50434" lon="1.52203">
        <ele>155.002128</ele>
        <time>2021-10-30T23:45:16.101Z</time>
      </trkpt>
      <trkpt lat="43.50455" lon="1.5216">
        <ele>154.709851</ele>
        <time>2021-10-30T23:45:23.888Z</time>
      </trkpt>
      <trkpt lat="43.50496" lon="1.52112">
        <ele>154.603456</ele>
        <time>2021-10-30T23:45:35.656Z</time>
      </trkpt>
      <trkpt lat="43.50539" lon="1.52088">
        <ele>154.570253</ele>
        <time>2021-10-30T23:45:46.146Z</time>
      </trkpt>
      <trkpt lat="43.50677" lon="1.52064">
        <ele>154.766643</ele>
        <time>2021-10-30T23:46:19.484Z</time>
      </trkpt>
      <trkpt lat="43.50712" lon="1.52051">
        <ele>154.951926</ele>
        <time>2021-10-30T23:46:28.560Z</time>
      </trkpt>
      <trkpt lat="43.50789" lon="1.51981">
        <ele>155.425942</ele>
        <time>2021-10-30T23:46:52.465Z</time>
      </trkpt>
      <trkpt lat="43.50912" lon="1.51843">
        <ele>156.411459</ele>
        <time>2021-10-30T23:47:34.022Z</time>
      </trkpt>
      <trkpt lat="43.50953" lon="1.51806">
        <ele>156.456835</ele>
        <time>2021-10-30T23:47:46.054Z</time>
      </trkpt>
      <trkpt lat="43.51057" lon="1.51757">
        <ele>156.059224</ele>
        <time>2021-10-30T23:48:09.934Z</time>
      </trkpt>
      <trkpt lat="43.51112" lon="1.51744">
        <ele>155.771306</ele>
        <time>2021-10-30T23:48:21.699Z</time>
      </trkpt>
      <trkpt lat="43.51122" lon="1.51739">
        <ele>155.662563</ele>
        <time>2021-10-30T23:48:23.720Z</time>
      </trkpt>
      <trkpt lat="43.5113" lon="1.51736">
        <ele>155.585633</ele>
        <time>2021-10-30T23:48:25.274Z</time>
      </trkpt>
      <trkpt lat="43.51154" lon="1.51725">
        <ele>155.324495</ele>
        <time>2021-10-30T23:48:30.487Z</time>
      </trkpt>
      <trkpt lat="43.51305" lon="1.51688">
        <ele>153.864399</ele>
        <time>2021-10-30T23:49:01.009Z</time>
      </trkpt>
      <trkpt lat="43.51325" lon="1.51682">
        <ele>153.725019</ele>
        <time>2021-10-30T23:49:05.263Z</time>
      </trkpt>
      <trkpt lat="43.51328" lon="1.51681">
        <ele>153.707049</ele>
        <time>2021-10-30T23:49:05.788Z</time>
      </trkpt>
      <trkpt lat="43.51378" lon="1.51665">
        <ele>153.358605</ele>
        <time>2021-10-30T23:49:16.846Z</time>
      </trkpt>
      <trkpt lat="43.51408" lon="1.51656">
        <ele>153.155347</ele>
        <time>2021-10-30T23:49:23.334Z</time>
      </trkpt>
      <trkpt lat="43.51447" lon="1.51657">
        <ele>152.886106</ele>
        <time>2021-10-30T23:49:31.811Z</time>
      </trkpt>
      <trkpt lat="43.51465" lon="1.51681">
        <ele>152.769875</ele>
        <time>2021-10-30T23:49:37.055Z</time>
      </trkpt>
      <trkpt lat="43.51483" lon="1.51717">
        <ele>152.63659</ele>
        <time>2021-10-30T23:49:44.055Z</time>
      </trkpt>
      <trkpt lat="43.51485" lon="1.51749">
        <ele>152.540713</ele>
        <time>2021-10-30T23:49:49.012Z</time>
      </trkpt>
      <trkpt lat="43.51479" lon="1.51791">
        <ele>152.407969</ele>
        <time>2021-10-30T23:49:55.714Z</time>
      </trkpt>
      <trkpt lat="43.51476" lon="1.51824">
        <ele>152.306243</ele>
        <time>2021-10-30T23:50:00.987Z</time>
      </trkpt>
      <trkpt lat="43.51475" lon="1.51833">
        <ele>152.277257</ele>
        <time>2021-10-30T23:50:02.346Z</time>
      </trkpt>
      <trkpt lat="43.51481" lon="1.51913">
        <ele>152.115282</ele>
        <time>2021-10-30T23:50:15.114Z</time>
      </trkpt>
      <trkpt lat="43.51502" lon="1.51949">
        <ele>152.163696</ele>
        <time>2021-10-30T23:50:22.696Z</time>
      </trkpt>
      <trkpt lat="43.51514" lon="1.51964">
        <ele>152.186443</ele>
        <time>2021-10-30T23:50:26.124Z</time>
      </trkpt>
      <trkpt lat="43.51523" lon="1.51976">
        <ele>152.204929</ele>
        <time>2021-10-30T23:50:29.228Z</time>
      </trkpt>
      <trkpt lat="43.516" lon="1.52059">
        <ele>152.343313</ele>
        <time>2021-10-30T23:50:52.953Z</time>
      </trkpt>
      <trkpt lat="43.51642" lon="1.52064">
        <ele>152.659438</ele>
        <time>2021-10-30T23:51:03.959Z</time>
      </trkpt>
      <trkpt lat="43.51684" lon="1.5205">
        <ele>153.024692</ele>
        <time>2021-10-30T23:51:16.019Z</time>
      </trkpt>
      <trkpt lat="43.51803" lon="1.51977">
        <ele>153.988111</ele>
        <time>2021-10-30T23:51:51.018Z</time>
      </trkpt>
      <trkpt lat="43.51833" lon="1.51977">
        <ele>154.112726</ele>
        <time>2021-10-30T23:51:58.423Z</time>
      </trkpt>
      <trkpt lat="43.51929" lon="1.52016">
        <ele>154.534787</ele>
        <time>2021-10-30T23:52:22.666Z</time>
      </trkpt>
      <trkpt lat="43.5199" lon="1.52022">
        <ele>154.66146</ele>
        <time>2021-10-30T23:52:37.393Z</time>
      </trkpt>
      <trkpt lat="43.52036" lon="1.52008">
        <ele>154.712279</ele>
        <time>2021-10-30T23:52:48.426Z</time>
      </trkpt>
      <trkpt lat="43.52114" lon="1.51956">
        <ele>154.807418</ele>
        <time>2021-10-30T23:53:09.189Z</time>
      </trkpt>
      <trkpt lat="43.52227" lon="1.51938">
        <ele>154.167277</ele>
        <time>2021-10-30T23:53:34.463Z</time>
      </trkpt>
      <trkpt lat="43.52308" lon="1.51911">
        <ele>153.588628</ele>
        <time>2021-10-30T23:53:50.958Z</time>
      </trkpt>
      <trkpt lat="43.52308" lon="1.51911">
        <ele>153.586051</ele>
        <time>2021-10-30T23:53:51.001Z</time>
      </trkpt>
      <trkpt lat="43.52326" lon="1.519">
        <ele>153.350154</ele>
        <time>2021-10-30T23:53:55.115Z</time>
      </trkpt>
      <trkpt lat="43.52331" lon="1.51897">
        <ele>153.28746</ele>
        <time>2021-10-30T23:53:55.983Z</time>
      </trkpt>
      <trkpt lat="43.52343" lon="1.51891">
        <ele>153.136266</ele>
        <time>2021-10-30T23:53:58.251Z</time>
      </trkpt>
      <trkpt lat="43.5236" lon="1.51888">
        <ele>152.92914</ele>
        <time>2021-10-30T23:54:01.735Z</time>
      </trkpt>
      <trkpt lat="43.52367" lon="1.51887">
        <ele>152.832774</ele>
        <time>2021-10-30T23:54:03.053Z</time>
      </trkpt>
      <trkpt lat="43.52402" lon="1.51876">
        <ele>152.40185</ele>
        <time>2021-10-30T23:54:09.641Z</time>
      </trkpt>
      <trkpt lat="43.52413" lon="1.51874">
        <ele>152.264284</ele>
        <time>2021-10-30T23:54:11.715Z</time>
      </trkpt>
      <trkpt lat="43.52462" lon="1.51851">
        <ele>151.638776</ele>
        <time>2021-10-30T23:54:21.639Z</time>
      </trkpt>
      <trkpt lat="43.52522" lon="1.51797">
        <ele>151.323319</ele>
        <time>2021-10-30T23:54:35.595Z</time>
      </trkpt>
      <trkpt lat="43.52553" lon="1.51752">
        <ele>151.149108</ele>
        <time>2021-10-30T23:54:45.499Z</time>
      </trkpt>
      <trkpt lat="43.5258" lon="1.51688">
        <ele>150.942534</ele>
        <time>2021-10-30T23:54:57.444Z</time>
      </trkpt>
      <trkpt lat="43.52599" lon="1.5163">
        <ele>150.781341</ele>
        <time>2021-10-30T23:55:07.609Z</time>
      </trkpt>
      <trkpt lat="43.52615" lon="1.51565">
        <ele>150.615248</ele>
        <time>2021-10-30T23:55:18.480Z</time>
      </trkpt>
      <trkpt lat="43.52621" lon="1.51556">
        <ele>150.585277</ele>
        <time>2021-10-30T23:55:20.413Z</time>
      </trkpt>
      <trkpt lat="43.52641" lon="1.51385">
        <ele>150.074366</ele>
        <time>2021-10-30T23:55:46.194Z</time>
      </trkpt>
      <trkpt lat="43.5265" lon="1.51209">
        <ele>149.314027</ele>
        <time>2021-10-30T23:56:11.681Z</time>
      </trkpt>
      <trkpt lat="43.52664" lon="1.51124">
        <ele>149.210877</ele>
        <time>2021-10-30T23:56:24.842Z</time>
      </trkpt>
      <trkpt lat="43.52695" lon="1.51016">
        <ele>149.198122</ele>
        <time>2021-10-30T23:56:43.557Z</time>
      </trkpt>
      <trkpt lat="43.5274" lon="1.50932">
        <ele>149.334036</ele>
        <time>2021-10-30T23:57:01.519Z</time>
      </trkpt>
      <trkpt lat="43.52782" lon="1.50886">
        <ele>149.626983</ele>
        <time>2021-10-30T23:57:15.116Z</time>
      </trkpt>
      <trkpt lat="43.52853" lon="1.50846">
        <ele>150.037776</ele>
        <time>2021-10-30T23:57:34.039Z</time>
      </trkpt>
      <trkpt lat="43.52878" lon="1.50826">
        <ele>150.168249</ele>
        <time>2021-10-30T23:57:41.095Z</time>
      </trkpt>
      <trkpt lat="43.53024" lon="1.50669">
        <ele>150.445012</ele>
        <time>2021-10-30T23:58:23.435Z</time>
      </trkpt>
      <trkpt lat="43.53109" lon="1.50603">
        <ele>150.131638</ele>
        <time>2021-10-30T23:58:43.858Z</time>
      </trkpt>
      <trkpt lat="43.53184" lon="1.5057">
        <ele>149.87412</ele>
        <time>2021-10-30T23:59:00.274Z</time>
      </trkpt>
      <trkpt lat="43.53235" lon="1.50555">
        <ele>149.701955</ele>
        <time>2021-10-30T23:59:10.918Z</time>
      </trkpt>
      <trkpt lat="43.53379" lon="1.50533">
        <ele>149.293983</ele>
        <time>2021-10-30T23:59:41.618Z</time>
      </trkpt>
      <trkpt lat="43.53413" lon="1.50519">
        <ele>149.282482</ele>
        <time>2021-10-30T23:59:49.343Z</time>
      </trkpt>
      <trkpt lat="43.53463" lon="1.50488">
        <ele>149.264304</ele>
        <time>2021-10-31T00:00:01.732Z</time>
      </trkpt>
      <trkpt lat="43.53593" lon="1.50378">
        <ele>149.147684</ele>
        <time>2021-10-31T00:00:35.796Z</time>
      </trkpt>
      <trkpt lat="43.53674" lon="1.50279">
        <ele>149.008693</ele>
        <time>2021-10-31T00:00:59.107Z</time>
      </trkpt>
      <trkpt lat="43.53726" lon="1.50203">
        <ele>148.832124</ele>
        <time>2021-10-31T00:01:14.912Z</time>
      </trkpt>
      <trkpt lat="43.53769" lon="1.50107">
        <ele>148.641214</ele>
        <time>2021-10-31T00:01:32.245Z</time>
      </trkpt>
      <trkpt lat="43.53855" lon="1.49956">
        <ele>148.832413</ele>
        <time>2021-10-31T00:02:04.216Z</time>
      </trkpt>
      <trkpt lat="43.53877" lon="1.49904">
        <ele>148.898722</ele>
        <time>2021-10-31T00:02:14.410Z</time>
      </trkpt>
      <trkpt lat="43.53894" lon="1.49842">
        <ele>148.982845</ele>
        <time>2021-10-31T00:02:25.675Z</time>
      </trkpt>
      <trkpt lat="43.53902" lon="1.49783">
        <ele>149.058491</ele>
        <time>2021-10-31T00:02:35.623Z</time>
      </trkpt>
      <trkpt lat="43.53901" lon="1.49715">
        <ele>149.146197</ele>
        <time>2021-10-31T00:02:46.992Z</time>
      </trkpt>
      <trkpt lat="43.53869" lon="1.49514">
        <ele>149.422627</ele>
        <time>2021-10-31T00:03:20.380Z</time>
      </trkpt>
      <trkpt lat="43.53857" lon="1.49412">
        <ele>149.579642</ele>
        <time>2021-10-31T00:03:37.957Z</time>
      </trkpt>
      <trkpt lat="43.53854" lon="1.49365">
        <ele>149.823278</ele>
        <time>2021-10-31T00:03:46.211Z</time>
      </trkpt>
      <trkpt lat="43.53864" lon="1.49315">
        <ele>150.093751</ele>
        <time>2021-10-31T00:03:55.617Z</time>
      </trkpt>
      <trkpt lat="43.539" lon="1.49273">
        <ele>150.43275</ele>
        <time>2021-10-31T00:04:07.705Z</time>
      </trkpt>
      <trkpt lat="43.53928" lon="1.49259">
        <ele>150.64297</ele>
        <time>2021-10-31T00:04:15.275Z</time>
      </trkpt>
      <trkpt lat="43.54017" lon="1.49239">
        <ele>151.443576</ele>
        <time>2021-10-31T00:04:38.779Z</time>
      </trkpt>
      <trkpt lat="43.54161" lon="1.49154">
        <ele>152.842284</ele>
        <time>2021-10-31T00:05:19.925Z</time>
      </trkpt>
      <trkpt lat="43.54198" lon="1.49132">
        <ele>153.1075</ele>
        <time>2021-10-31T00:05:30.183Z</time>
      </trkpt>
      <trkpt lat="43.54231" lon="1.49113">
        <ele>153.344002</ele>
        <time>2021-10-31T00:05:39.240Z</time>
      </trkpt>
      <trkpt lat="43.54355" lon="1.49052">
        <ele>153.530755</ele>
        <time>2021-10-31T00:06:09.911Z</time>
      </trkpt>
      <trkpt lat="43.54395" lon="1.49037">
        <ele>153.371411</ele>
        <time>2021-10-31T00:06:18.573Z</time>
      </trkpt>
      <trkpt lat="43.54422" lon="1.49025">
        <ele>153.263462</ele>
        <time>2021-10-31T00:06:24.217Z</time>
      </trkpt>
      <trkpt lat="43.54431" lon="1.49021">
        <ele>153.227664</ele>
        <time>2021-10-31T00:06:26.067Z</time>
      </trkpt>
      <trkpt lat="43.54455" lon="1.49009">
        <ele>153.132283</ele>
        <time>2021-10-31T00:06:30.926Z</time>
      </trkpt>
      <trkpt lat="43.54461" lon="1.49003">
        <ele>153.102967</ele>
        <time>2021-10-31T00:06:32.431Z</time>
      </trkpt>
      <trkpt lat="43.54478" lon="1.48978">
        <ele>152.913177</ele>
        <time>2021-10-31T00:06:37.104Z</time>
      </trkpt>
      <trkpt lat="43.54507" lon="1.48912">
        <ele>152.469325</ele>
        <time>2021-10-31T00:06:47.886Z</time>
      </trkpt>
      <trkpt lat="43.54535" lon="1.48832">
        <ele>151.953225</ele>
        <time>2021-10-31T00:07:00.639Z</time>
      </trkpt>
      <trkpt lat="43.54573" lon="1.48728">
        <ele>151.50717</ele>
        <time>2021-10-31T00:07:18.114Z</time>
      </trkpt>
      <trkpt lat="43.54594" lon="1.48676">
        <ele>151.366179</ele>
        <time>2021-10-31T00:07:27.281Z</time>
      </trkpt>
      <trkpt lat="43.546" lon="1.48664">
        <ele>151.331406</ele>
        <time>2021-10-31T00:07:29.633Z</time>
      </trkpt>
      <trkpt lat="43.5461" lon="1.48645">
        <ele>151.276375</ele>
        <time>2021-10-31T00:07:33.284Z</time>
      </trkpt>
      <trkpt lat="43.5462" lon="1.48631">
        <ele>151.230645</ele>
        <time>2021-10-31T00:07:36.320Z</time>
      </trkpt>
      <trkpt lat="43.54646" lon="1.48598">
        <ele>151.11459</ele>
        <time>2021-10-31T00:07:43.950Z</time>
      </trkpt>
      <trkpt lat="43.54664" lon="1.4858">
        <ele>151.020932</ele>
        <time>2021-10-31T00:07:48.591Z</time>
      </trkpt>
      <trkpt lat="43.54706" lon="1.48544">
        <ele>150.760582</ele>
        <time>2021-10-31T00:07:58.575Z</time>
      </trkpt>
      <trkpt lat="43.5478" lon="1.48488">
        <ele>150.312308</ele>
        <time>2021-10-31T00:08:15.688Z</time>
      </trkpt>
      <trkpt lat="43.54788" lon="1.4848">
        <ele>150.261738</ele>
        <time>2021-10-31T00:08:17.672Z</time>
      </trkpt>
      <trkpt lat="43.54794" lon="1.48471">
        <ele>150.213593</ele>
        <time>2021-10-31T00:08:19.419Z</time>
      </trkpt>
      <trkpt lat="43.54801" lon="1.48466">
        <ele>150.173337</ele>
        <time>2021-10-31T00:08:21.013Z</time>
      </trkpt>
      <trkpt lat="43.54805" lon="1.48464">
        <ele>150.150229</ele>
        <time>2021-10-31T00:08:21.918Z</time>
      </trkpt>
      <trkpt lat="43.54809" lon="1.4846">
        <ele>150.124763</ele>
        <time>2021-10-31T00:08:23.071Z</time>
      </trkpt>
      <trkpt lat="43.54817" lon="1.48458">
        <ele>150.12175</ele>
        <time>2021-10-31T00:08:24.630Z</time>
      </trkpt>
      <trkpt lat="43.54819" lon="1.48458">
        <ele>150.120885</ele>
        <time>2021-10-31T00:08:25.060Z</time>
      </trkpt>
      <trkpt lat="43.54823" lon="1.48458">
        <ele>150.118908</ele>
        <time>2021-10-31T00:08:25.998Z</time>
      </trkpt>
      <trkpt lat="43.54826" lon="1.48459">
        <ele>150.117738</ele>
        <time>2021-10-31T00:08:26.557Z</time>
      </trkpt>
      <trkpt lat="43.54829" lon="1.4846">
        <ele>150.116667</ele>
        <time>2021-10-31T00:08:27.065Z</time>
      </trkpt>
      <trkpt lat="43.5483" lon="1.48461">
        <ele>150.115918</ele>
        <time>2021-10-31T00:08:27.443Z</time>
      </trkpt>
      <trkpt lat="43.54832" lon="1.48462">
        <ele>150.11522</ele>
        <time>2021-10-31T00:08:27.806Z</time>
      </trkpt>
      <trkpt lat="43.54837" lon="1.48474">
        <ele>150.111114</ele>
        <time>2021-10-31T00:08:29.943Z</time>
      </trkpt>
      <trkpt lat="43.54831" lon="1.48485">
        <ele>150.107012</ele>
        <time>2021-10-31T00:08:32.072Z</time>
      </trkpt>
      <trkpt lat="43.54821" lon="1.48481">
        <ele>150.102783</ele>
        <time>2021-10-31T00:08:34.110Z</time>
      </trkpt>
      <trkpt lat="43.54822" lon="1.48466">
        <ele>150.098243</ele>
        <time>2021-10-31T00:08:36.451Z</time>
      </trkpt>
      <trkpt lat="43.54823" lon="1.48464">
        <ele>150.097476</ele>
        <time>2021-10-31T00:08:36.866Z</time>
      </trkpt>
      <trkpt lat="43.54863" lon="1.48432">
        <ele>150.078476</ele>
        <time>2021-10-31T00:08:47.075Z</time>
      </trkpt>
      <trkpt lat="43.54864" lon="1.48431">
        <ele>150.078069</ele>
        <time>2021-10-31T00:08:47.341Z</time>
      </trkpt>
      <trkpt lat="43.54866" lon="1.48428">
        <ele>150.076768</ele>
        <time>2021-10-31T00:08:48.092Z</time>
      </trkpt>
      <trkpt lat="43.54878" lon="1.48418">
        <ele>150.070874</ele>
        <time>2021-10-31T00:08:51.237Z</time>
      </trkpt>
      <trkpt lat="43.5493" lon="1.48372">
        <ele>150.092638</ele>
        <time>2021-10-31T00:09:06.367Z</time>
      </trkpt>
      <trkpt lat="43.5495" lon="1.48353">
        <ele>150.166107</ele>
        <time>2021-10-31T00:09:12.050Z</time>
      </trkpt>
      <trkpt lat="43.54983" lon="1.48319">
        <ele>150.292688</ele>
        <time>2021-10-31T00:09:21.893Z</time>
      </trkpt>
      <trkpt lat="43.55013" lon="1.4829">
        <ele>150.404083</ele>
        <time>2021-10-31T00:09:30.188Z</time>
      </trkpt>
      <trkpt lat="43.55043" lon="1.48261">
        <ele>150.519386</ele>
        <time>2021-10-31T00:09:38.815Z</time>
      </trkpt>
      <trkpt lat="43.55076" lon="1.4823">
        <ele>150.616032</ele>
        <time>2021-10-31T00:09:48.035Z</time>
      </trkpt>
      <trkpt lat="43.55131" lon="1.48202">
        <ele>150.675036</ele>
        <time>2021-10-31T00:10:01.706Z</time>
      </trkpt>
      <trkpt lat="43.55142" lon="1.48198">
        <ele>150.686841</ele>
        <time>2021-10-31T00:10:04.166Z</time>
      </trkpt>
      <trkpt lat="43.55163" lon="1.4819">
        <ele>150.708825</ele>
        <time>2021-10-31T00:10:09.149Z</time>
      </trkpt>
      <trkpt lat="43.55244" lon="1.48161">
        <ele>150.797724</ele>
        <time>2021-10-31T00:10:27.321Z</time>
      </trkpt>
      <trkpt lat="43.55259" lon="1.48156">
        <ele>150.822257</ele>
        <time>2021-10-31T00:10:30.950Z</time>
      </trkpt>
      <trkpt lat="43.55345" lon="1.4813">
        <ele>150.960696</ele>
        <time>2021-10-31T00:10:51.273Z</time>
      </trkpt>
      <trkpt lat="43.55452" lon="1.48123">
        <ele>151.307794</ele>
        <time>2021-10-31T00:11:15.717Z</time>
      </trkpt>
      <trkpt lat="43.55472" lon="1.48118">
        <ele>151.43476</ele>
        <time>2021-10-31T00:11:20.874Z</time>
      </trkpt>
      <trkpt lat="43.55476" lon="1.48116">
        <ele>151.462305</ele>
        <time>2021-10-31T00:11:21.866Z</time>
      </trkpt>
      <trkpt lat="43.55481" lon="1.48115">
        <ele>151.494532</ele>
        <time>2021-10-31T00:11:23.015Z</time>
      </trkpt>
      <trkpt lat="43.55485" lon="1.48114">
        <ele>151.522358</ele>
        <time>2021-10-31T00:11:24.049Z</time>
      </trkpt>
      <trkpt lat="43.55556" lon="1.48084">
        <ele>151.989373</ele>
        <time>2021-10-31T00:11:42.533Z</time>
      </trkpt>
      <trkpt lat="43.55565" lon="1.48082">
        <ele>152.046242</ele>
        <time>2021-10-31T00:11:44.834Z</time>
      </trkpt>
      <trkpt lat="43.5557" lon="1.48081">
        <ele>152.078522</ele>
        <time>2021-10-31T00:11:46.424Z</time>
      </trkpt>
      <trkpt lat="43.55595" lon="1.48071">
        <ele>152.276124</ele>
        <time>2021-10-31T00:11:52.963Z</time>
      </trkpt>
      <trkpt lat="43.5561" lon="1.48061">
        <ele>152.452126</ele>
        <time>2021-10-31T00:11:57.550Z</time>
      </trkpt>
      <trkpt lat="43.55664" lon="1.48021">
        <ele>153.119644</ele>
        <time>2021-10-31T00:12:13.855Z</time>
      </trkpt>
      <trkpt lat="43.55763" lon="1.47929">
        <ele>154.336662</ele>
        <time>2021-10-31T00:12:46.397Z</time>
      </trkpt>
      <trkpt lat="43.55863" lon="1.47785">
        <ele>155.389906</ele>
        <time>2021-10-31T00:13:22.229Z</time>
      </trkpt>
      <trkpt lat="43.55952" lon="1.47666">
        <ele>155.935716</ele>
        <time>2021-10-31T00:13:51.337Z</time>
      </trkpt>
      <trkpt lat="43.56009" lon="1.476">
        <ele>156.209334</ele>
        <time>2021-10-31T00:14:09.689Z</time>
      </trkpt>
      <trkpt lat="43.56067" lon="1.47534">
        <ele>156.182267</ele>
        <time>2021-10-31T00:14:27.104Z</time>
      </trkpt>
      <trkpt lat="43.5612" lon="1.47474">
        <ele>156.157617</ele>
        <time>2021-10-31T00:14:42.161Z</time>
      </trkpt>
      <trkpt lat="43.56129" lon="1.47464">
        <ele>156.153617</ele>
        <time>2021-10-31T00:14:44.756Z</time>
      </trkpt>
      <trkpt lat="43.5615" lon="1.47439">
        <ele>156.03185</ele>
        <time>2021-10-31T00:14:50.431Z</time>
      </trkpt>
      <trkpt lat="43.56303" lon="1.4724">
        <ele>153.62259</ele>
        <time>2021-10-31T00:15:29.814Z</time>
      </trkpt>
      <trkpt lat="43.56346" lon="1.47195">
        <ele>152.95781</ele>
        <time>2021-10-31T00:15:39.857Z</time>
      </trkpt>
      <trkpt lat="43.56418" lon="1.47163">
        <ele>152.026281</ele>
        <time>2021-10-31T00:15:53.941Z</time>
      </trkpt>
      <trkpt lat="43.56511" lon="1.47168">
        <ele>151.614284</ele>
        <time>2021-10-31T00:16:12.604Z</time>
      </trkpt>
      <trkpt lat="43.56517" lon="1.47168">
        <ele>151.591636</ele>
        <time>2021-10-31T00:16:13.745Z</time>
      </trkpt>
      <trkpt lat="43.56521" lon="1.47167">
        <ele>151.575626</ele>
        <time>2021-10-31T00:16:14.786Z</time>
      </trkpt>
      <trkpt lat="43.5655" lon="1.47168">
        <ele>151.47098</ele>
        <time>2021-10-31T00:16:21.102Z</time>
      </trkpt>
      <trkpt lat="43.56554" lon="1.47172">
        <ele>151.453759</ele>
        <time>2021-10-31T00:16:22.092Z</time>
      </trkpt>
      <trkpt lat="43.5663" lon="1.47175">
        <ele>151.420401</ele>
        <time>2021-10-31T00:16:39.509Z</time>
      </trkpt>
      <trkpt lat="43.56741" lon="1.47175">
        <ele>152.141472</ele>
        <time>2021-10-31T00:17:07.692Z</time>
      </trkpt>
      <trkpt lat="43.56788" lon="1.4717">
        <ele>152.444241</ele>
        <time>2021-10-31T00:17:19.539Z</time>
      </trkpt>
      <trkpt lat="43.56822" lon="1.47164">
        <ele>152.68161</ele>
        <time>2021-10-31T00:17:28.280Z</time>
      </trkpt>
      <trkpt lat="43.56838" lon="1.47161">
        <ele>152.791291</ele>
        <time>2021-10-31T00:17:32.233Z</time>
      </trkpt>
      <trkpt lat="43.56854" lon="1.47157">
        <ele>152.900149</ele>
        <time>2021-10-31T00:17:36.297Z</time>
      </trkpt>
      <trkpt lat="43.56864" lon="1.47152">
        <ele>152.970944</ele>
        <time>2021-10-31T00:17:38.914Z</time>
      </trkpt>
      <trkpt lat="43.56885" lon="1.47135">
        <ele>153.138878</ele>
        <time>2021-10-31T00:17:44.930Z</time>
      </trkpt>
      <trkpt lat="43.5697" lon="1.47074">
        <ele>153.735746</ele>
        <time>2021-10-31T00:18:08.969Z</time>
      </trkpt>
      <trkpt lat="43.56993" lon="1.47058">
        <ele>153.840655</ele>
        <time>2021-10-31T00:18:15.418Z</time>
      </trkpt>
      <trkpt lat="43.57022" lon="1.47043">
        <ele>153.967707</ele>
        <time>2021-10-31T00:18:22.915Z</time>
      </trkpt>
      <trkpt lat="43.57019" lon="1.47036">
        <ele>153.992444</ele>
        <time>2021-10-31T00:18:24.411Z</time>
      </trkpt>
      <trkpt lat="43.57014" lon="1.47018">
        <ele>154.051445</ele>
        <time>2021-10-31T00:18:27.816Z</time>
      </trkpt>
      <trkpt lat="43.57012" lon="1.47012">
        <ele>154.070272</ele>
        <time>2021-10-31T00:18:28.918Z</time>
      </trkpt>
      <trkpt lat="43.57024" lon="1.47005">
        <ele>154.124347</ele>
        <time>2021-10-31T00:18:32.004Z</time>
      </trkpt>
      <trkpt lat="43.5706" lon="1.46992">
        <ele>154.278223</ele>
        <time>2021-10-31T00:18:40.829Z</time>
      </trkpt>
      <trkpt lat="43.57095" lon="1.46986">
        <ele>154.356006</ele>
        <time>2021-10-31T00:18:48.995Z</time>
      </trkpt>
      <trkpt lat="43.57265" lon="1.46977">
        <ele>153.405672</ele>
        <time>2021-10-31T00:19:23.779Z</time>
      </trkpt>
      <trkpt lat="43.57382" lon="1.46931">
        <ele>152.092212</ele>
        <time>2021-10-31T00:19:46.250Z</time>
      </trkpt>
      <trkpt lat="43.57401" lon="1.46931">
        <ele>151.889327</ele>
        <time>2021-10-31T00:19:50.324Z</time>
      </trkpt>
      <trkpt lat="43.57403" lon="1.4693">
        <ele>151.868931</ele>
        <time>2021-10-31T00:19:50.566Z</time>
      </trkpt>
      <trkpt lat="43.57437" lon="1.46902">
        <ele>151.434313</ele>
        <time>2021-10-31T00:19:58.416Z</time>
      </trkpt>
      <trkpt lat="43.57449" lon="1.46892">
        <ele>151.413794</ele>
        <time>2021-10-31T00:20:01.254Z</time>
      </trkpt>
      <trkpt lat="43.57454" lon="1.46884">
        <ele>151.406173</ele>
        <time>2021-10-31T00:20:03.051Z</time>
      </trkpt>
      <trkpt lat="43.57468" lon="1.46859">
        <ele>151.382558</ele>
        <time>2021-10-31T00:20:07.452Z</time>
      </trkpt>
      <trkpt lat="43.57477" lon="1.46843">
        <ele>151.367537</ele>
        <time>2021-10-31T00:20:11.037Z</time>
      </trkpt>
      <trkpt lat="43.57493" lon="1.46818">
        <ele>151.343089</ele>
        <time>2021-10-31T00:20:15.876Z</time>
      </trkpt>
      <trkpt lat="43.57514" lon="1.4678">
        <ele>151.307915</ele>
        <time>2021-10-31T00:20:23.354Z</time>
      </trkpt>
      <trkpt lat="43.57522" lon="1.46763">
        <ele>151.292936</ele>
        <time>2021-10-31T00:20:27.208Z</time>
      </trkpt>
      <trkpt lat="43.57516" lon="1.46765">
        <ele>151.28701</ele>
        <time>2021-10-31T00:20:28.549Z</time>
      </trkpt>
      <trkpt lat="43.57508" lon="1.46766">
        <ele>151.278386</ele>
        <time>2021-10-31T00:20:30.630Z</time>
      </trkpt>
      <trkpt lat="43.57503" lon="1.46764">
        <ele>151.272713</ele>
        <time>2021-10-31T00:20:31.813Z</time>
      </trkpt>
      <trkpt lat="43.57503" lon="1.46747">
        <ele>151.260195</ele>
        <time>2021-10-31T00:20:36.928Z</time>
      </trkpt>
      <trkpt lat="43.57503" lon="1.46745">
        <ele>151.258416</ele>
        <time>2021-10-31T00:20:37.593Z</time>
      </trkpt>
      <trkpt lat="43.57509" lon="1.46749">
        <ele>151.25205</ele>
        <time>2021-10-31T00:20:39.133Z</time>
      </trkpt>
      <trkpt lat="43.57564" lon="1.46794">
        <ele>151.304031</ele>
        <time>2021-10-31T00:20:54.265Z</time>
      </trkpt>
      <trkpt lat="43.57569" lon="1.468">
        <ele>151.311331</ele>
        <time>2021-10-31T00:20:55.740Z</time>
      </trkpt>
      <trkpt lat="43.57578" lon="1.46822">
        <ele>151.331036</ele>
        <time>2021-10-31T00:20:59.692Z</time>
      </trkpt>
      <trkpt lat="43.57582" lon="1.46859">
        <ele>151.360488</ele>
        <time>2021-10-31T00:21:05.796Z</time>
      </trkpt>
      <trkpt lat="43.57584" lon="1.46865">
        <ele>151.365129</ele>
        <time>2021-10-31T00:21:06.674Z</time>
      </trkpt>
      <trkpt lat="43.57588" lon="1.46876">
        <ele>151.375712</ele>
        <time>2021-10-31T00:21:08.727Z</time>
      </trkpt>
      <trkpt lat="43.57598" lon="1.46892">
        <ele>151.392177</ele>
        <time>2021-10-31T00:21:12.173Z</time>
      </trkpt>
      <trkpt lat="43.57613" lon="1.46915">
        <ele>151.416174</ele>
        <time>2021-10-31T00:21:17.287Z</time>
      </trkpt>
      <trkpt lat="43.57663" lon="1.46991">
        <ele>151.561856</ele>
        <time>2021-10-31T00:21:33.516Z</time>
      </trkpt>
      <trkpt lat="43.57659" lon="1.47013">
        <ele>151.598185</ele>
        <time>2021-10-31T00:21:37.134Z</time>
      </trkpt>
      <trkpt lat="43.57662" lon="1.47017">
        <ele>151.609396</ele>
        <time>2021-10-31T00:21:38.198Z</time>
      </trkpt>
      <trkpt lat="43.57665" lon="1.4702">
        <ele>151.617378</ele>
        <time>2021-10-31T00:21:38.971Z</time>
      </trkpt>
      <trkpt lat="43.5768" lon="1.47018">
        <ele>151.651394</ele>
        <time>2021-10-31T00:21:42.257Z</time>
      </trkpt>
      <trkpt lat="43.57732" lon="1.47085">
        <ele>151.816506</ele>
        <time>2021-10-31T00:21:59.435Z</time>
      </trkpt>
      <trkpt lat="43.57793" lon="1.47139">
        <ele>152.274432</ele>
        <time>2021-10-31T00:22:17.349Z</time>
      </trkpt>
      <trkpt lat="43.5792" lon="1.47291">
        <ele>154.026919</ele>
        <time>2021-10-31T00:22:59.819Z</time>
      </trkpt>
      <trkpt lat="43.57935" lon="1.4732">
        <ele>154.507472</ele>
        <time>2021-10-31T00:23:06.698Z</time>
      </trkpt>
      <trkpt lat="43.57941" lon="1.47329">
        <ele>154.679629</ele>
        <time>2021-10-31T00:23:09.854Z</time>
      </trkpt>
      <trkpt lat="43.57942" lon="1.47333">
        <ele>154.735253</ele>
        <time>2021-10-31T00:23:10.841Z</time>
      </trkpt>
      <trkpt lat="43.57942" lon="1.47337">
        <ele>154.795194</ele>
        <time>2021-10-31T00:23:11.874Z</time>
      </trkpt>
      <trkpt lat="43.57938" lon="1.47347">
        <ele>154.942514</ele>
        <time>2021-10-31T00:23:13.891Z</time>
      </trkpt>
      <trkpt lat="43.57924" lon="1.47371">
        <ele>155.357752</ele>
        <time>2021-10-31T00:23:20.666Z</time>
      </trkpt>
      <trkpt lat="43.5791" lon="1.4741">
        <ele>155.945832</ele>
        <time>2021-10-31T00:23:30.006Z</time>
      </trkpt>
      <trkpt lat="43.57916" lon="1.47414">
        <ele>156.068828</ele>
        <time>2021-10-31T00:23:32.593Z</time>
      </trkpt>
      <trkpt lat="43.57919" lon="1.47417">
        <ele>156.137806</ele>
        <time>2021-10-31T00:23:34.017Z</time>
      </trkpt>
      <trkpt lat="43.57926" lon="1.47421">
        <ele>156.286878</ele>
        <time>2021-10-31T00:23:36.483Z</time>
      </trkpt>
      <trkpt lat="43.57971" lon="1.47438">
        <ele>157.679268</ele>
        <time>2021-10-31T00:23:52.614Z</time>
      </trkpt>
      <trkpt lat="43.57984" lon="1.47443">
        <ele>158.176489</ele>
        <time>2021-10-31T00:23:58.401Z</time>
      </trkpt>
      <trkpt lat="43.58044" lon="1.47477">
        <ele>160.436536</ele>
        <time>2021-10-31T00:24:22.014Z</time>
      </trkpt>
      <trkpt lat="43.58062" lon="1.47494">
        <ele>161.204704</ele>
        <time>2021-10-31T00:24:30.420Z</time>
      </trkpt>
      <trkpt lat="43.58072" lon="1.47505">
        <ele>161.653588</ele>
        <time>2021-10-31T00:24:35.085Z</time>
      </trkpt>
      <trkpt lat="43.58101" lon="1.47533">
        <ele>162.882975</ele>
        <time>2021-10-31T00:24:48.187Z</time>
      </trkpt>
      <trkpt lat="43.58138" lon="1.47571">
        <ele>164.071116</ele>
        <time>2021-10-31T00:25:04.485Z</time>
      </trkpt>
      <trkpt lat="43.58145" lon="1.47579">
        <ele>164.320264</ele>
        <time>2021-10-31T00:25:07.655Z</time>
      </trkpt>
      <trkpt lat="43.58151" lon="1.47583">
        <ele>164.488573</ele>
        <time>2021-10-31T00:25:10.057Z</time>
      </trkpt>
      <trkpt lat="43.58156" lon="1.47572">
        <ele>164.720071</ele>
        <time>2021-10-31T00:25:13.174Z</time>
      </trkpt>
      <trkpt lat="43.58158" lon="1.47565">
        <ele>164.872579</ele>
        <time>2021-10-31T00:25:15.044Z</time>
      </trkpt>
      <trkpt lat="43.58161" lon="1.4756">
        <ele>164.990565</ele>
        <time>2021-10-31T00:25:16.562Z</time>
      </trkpt>
      <trkpt lat="43.58166" lon="1.47565">
        <ele>165.167087</ele>
        <time>2021-10-31T00:25:18.783Z</time>
      </trkpt>
      <trkpt lat="43.58205" lon="1.47593">
        <ele>166.299939</ele>
        <time>2021-10-31T00:25:32.637Z</time>
      </trkpt>
      <trkpt lat="43.58205" lon="1.47597">
        <ele>166.377042</ele>
        <time>2021-10-31T00:25:33.557Z</time>
      </trkpt>
      <trkpt lat="43.58207" lon="1.47607">
        <ele>166.571653</ele>
        <time>2021-10-31T00:25:35.970Z</time>
      </trkpt>
      <trkpt lat="43.58307" lon="1.4772">
        <ele>169.424875</ele>
        <time>2021-10-31T00:26:13.769Z</time>
      </trkpt>
      <trkpt lat="43.58324" lon="1.47706">
        <ele>169.814449</ele>
        <time>2021-10-31T00:26:20.154Z</time>
      </trkpt>
      <trkpt lat="43.58342" lon="1.47709">
        <ele>170.190031</ele>
        <time>2021-10-31T00:26:25.805Z</time>
      </trkpt>
      <trkpt lat="43.58365" lon="1.47735">
        <ele>170.807527</ele>
        <time>2021-10-31T00:26:35.806Z</time>
      </trkpt>
      <trkpt lat="43.58369" lon="1.47754">
        <ele>171.099145</ele>
        <time>2021-10-31T00:26:40.744Z</time>
      </trkpt>
      <trkpt lat="43.58395" lon="1.47786">
        <ele>172.132987</ele>
        <time>2021-10-31T00:26:52.917Z</time>
      </trkpt>
      <trkpt lat="43.58399" lon="1.47792">
        <ele>172.297798</ele>
        <time>2021-10-31T00:26:54.949Z</time>
      </trkpt>
      <trkpt lat="43.58402" lon="1.47797">
        <ele>172.452995</ele>
        <time>2021-10-31T00:26:56.630Z</time>
      </trkpt>
      <trkpt lat="43.58421" lon="1.4782">
        <ele>173.232982</ele>
        <time>2021-10-31T00:27:05.002Z</time>
      </trkpt>
      <trkpt lat="43.58429" lon="1.47828">
        <ele>173.533491</ele>
        <time>2021-10-31T00:27:08.429Z</time>
      </trkpt>
      <trkpt lat="43.58437" lon="1.47833">
        <ele>173.792908</ele>
        <time>2021-10-31T00:27:11.183Z</time>
      </trkpt>
      <trkpt lat="43.58474" lon="1.47853">
        <ele>175.017296</ele>
        <time>2021-10-31T00:27:24.970Z</time>
      </trkpt>
      <trkpt lat="43.58478" lon="1.47856">
        <ele>175.167322</ele>
        <time>2021-10-31T00:27:27.314Z</time>
      </trkpt>
      <trkpt lat="43.58541" lon="1.47908">
        <ele>177.456877</ele>
        <time>2021-10-31T00:27:53.508Z</time>
      </trkpt>
      <trkpt lat="43.58556" lon="1.47907">
        <ele>177.943508</ele>
        <time>2021-10-31T00:27:58.437Z</time>
      </trkpt>
      <trkpt lat="43.58568" lon="1.47896">
        <ele>178.407519</ele>
        <time>2021-10-31T00:28:03.135Z</time>
      </trkpt>
      <trkpt lat="43.58577" lon="1.47875">
        <ele>178.969282</ele>
        <time>2021-10-31T00:28:09.763Z</time>
      </trkpt>
      <trkpt lat="43.58588" lon="1.47846">
        <ele>179.745986</ele>
        <time>2021-10-31T00:28:18.143Z</time>
      </trkpt>
      <trkpt lat="43.58609" lon="1.47797">
        <ele>181.068134</ele>
        <time>2021-10-31T00:28:31.622Z</time>
      </trkpt>
      <trkpt lat="43.58624" lon="1.47775">
        <ele>181.762723</ele>
        <time>2021-10-31T00:28:38.665Z</time>
      </trkpt>
      <trkpt lat="43.58656" lon="1.47745">
        <ele>183.066985</ele>
        <time>2021-10-31T00:28:53.357Z</time>
      </trkpt>
      <trkpt lat="43.58705" lon="1.47732">
        <ele>184.812525</ele>
        <time>2021-10-31T00:29:13.218Z</time>
      </trkpt>
      <trkpt lat="43.58768" lon="1.47746">
        <ele>187.059181</ele>
        <time>2021-10-31T00:29:35.908Z</time>
      </trkpt>
      <trkpt lat="43.58775" lon="1.47748">
        <ele>187.293637</ele>
        <time>2021-10-31T00:29:39.331Z</time>
      </trkpt>
      <trkpt lat="43.58782" lon="1.4775">
        <ele>187.540124</ele>
        <time>2021-10-31T00:29:41.672Z</time>
      </trkpt>
      <trkpt lat="43.58786" lon="1.47752">
        <ele>187.673877</ele>
        <time>2021-10-31T00:29:42.811Z</time>
      </trkpt>
      <trkpt lat="43.58812" lon="1.4776">
        <ele>188.637873</ele>
        <time>2021-10-31T00:29:52.574Z</time>
      </trkpt>
      <trkpt lat="43.58848" lon="1.47771">
        <ele>189.612293</ele>
        <time>2021-10-31T00:30:04.377Z</time>
      </trkpt>
      <trkpt lat="43.58901" lon="1.47794">
        <ele>191.030201</ele>
        <time>2021-10-31T00:30:22.486Z</time>
      </trkpt>
      <trkpt lat="43.58919" lon="1.47802">
        <ele>191.505394</ele>
        <time>2021-10-31T00:30:29.556Z</time>
      </trkpt>
      <trkpt lat="43.58923" lon="1.47805">
        <ele>191.613752</ele>
        <time>2021-10-31T00:30:30.801Z</time>
      </trkpt>
      <trkpt lat="43.58933" lon="1.47819">
        <ele>191.97094</ele>
        <time>2021-10-31T00:30:35.102Z</time>
      </trkpt>
      <trkpt lat="43.58936" lon="1.47829">
        <ele>192.173389</ele>
        <time>2021-10-31T00:30:37.372Z</time>
      </trkpt>
      <trkpt lat="43.58962" lon="1.4783">
        <ele>192.843112</ele>
        <time>2021-10-31T00:30:47.267Z</time>
      </trkpt>
      <trkpt lat="43.5897" lon="1.47842">
        <ele>193.127297</ele>
        <time>2021-10-31T00:30:51.402Z</time>
      </trkpt>
      <trkpt lat="43.58977" lon="1.4783">
        <ele>193.417771</ele>
        <time>2021-10-31T00:30:55.171Z</time>
      </trkpt>
      <trkpt lat="43.58997" lon="1.47816">
        <ele>193.765412</ele>
        <time>2021-10-31T00:31:01.881Z</time>
      </trkpt>
      <trkpt lat="43.59029" lon="1.47792">
        <ele>194.352038</ele>
        <time>2021-10-31T00:31:12.676Z</time>
      </trkpt>
      <trkpt lat="43.59079" lon="1.47753">
        <ele>195.283086</ele>
        <time>2021-10-31T00:31:29.269Z</time>
      </trkpt>
      <trkpt lat="43.59119" lon="1.47717">
        <ele>196.04588</ele>
        <time>2021-10-31T00:31:43.523Z</time>
      </trkpt>
      <trkpt lat="43.5913" lon="1.47707">
        <ele>196.260354</ele>
        <time>2021-10-31T00:31:46.919Z</time>
      </trkpt>
      <trkpt lat="43.59196" lon="1.47668">
        <ele>195.521386</ele>
        <time>2021-10-31T00:32:03.887Z</time>
      </trkpt>
      <trkpt lat="43.59229" lon="1.47668">
        <ele>195.158637</ele>
        <time>2021-10-31T00:32:10.287Z</time>
      </trkpt>
      <trkpt lat="43.59238" lon="1.47671">
        <ele>195.053093</ele>
        <time>2021-10-31T00:32:11.866Z</time>
      </trkpt>
      <trkpt lat="43.5924" lon="1.47662">
        <ele>194.975649</ele>
        <time>2021-10-31T00:32:13.119Z</time>
      </trkpt>
      <trkpt lat="43.59246" lon="1.47632">
        <ele>194.720501</ele>
        <time>2021-10-31T00:32:17.114Z</time>
      </trkpt>
      <trkpt lat="43.59249" lon="1.47619">
        <ele>194.612504</ele>
        <time>2021-10-31T00:32:18.613Z</time>
      </trkpt>
      <trkpt lat="43.59261" lon="1.47558">
        <ele>194.285075</ele>
        <time>2021-10-31T00:32:26.115Z</time>
      </trkpt>
      <trkpt lat="43.59273" lon="1.47532">
        <ele>194.285075</ele>
        <time>2021-10-31T00:32:29.646Z</time>
      </trkpt>
      <trkpt lat="43.59291" lon="1.47495">
        <ele>194.285075</ele>
        <time>2021-10-31T00:32:34.794Z</time>
      </trkpt>
      <trkpt lat="43.59179" lon="1.47416">
        <ele>194.285075</ele>
        <time>2021-10-31T00:32:55.054Z</time>
      </trkpt>
    </trkseg>
  </trk>
</gpx>